Check out our new PWSWeather beta!
PWSweather.com
Personal Weather Stations
Station Observations
KD5LEN
Ktxnorth1, North Richland Hills, TX 76180

Ktxnorth1North Richland Hills, TX 76180

Lat: 32.885294, Lon: -97.236048

Elevation: 694

Station Type: Vantage Pro 2

http://www.atzer0.net/VWS/root/index.htm

High Low Average
Temperature 93.1°F33.9°C 76.4°F24.7°C 84.0°F28.9°C
Dew Point 71.2°F21.8°C 62.6°F17.0°C 68.0°F20.0°C
Winds 21.0 mph 33.8 kmh 1.0 mph 1.6 kmh 7.0 mph S11.3 kmh S
Wind Gusts 22.0 mph35.4 kmh 4.0 mph6.4 kmh 15.0 mph24.1 kmh
Humidity 81% 37% 61%
Pressure 29.92 in1013.2 mb 29.77 in1008.1 mb -
Precipitation 0.00 in0.0 mm - -
Hour Temp Dew Point Humidity Winds Wind Gusts Pressure Precip Precip Rate Daily Precip Total
12:00 AM 82.9°F28.3°C 69.9°F21.1°C 65% 5.0 mph E8.0 kmh E 15.0 mph24.1 kmh 29.85 in1010.8 mb 0.00 in0.0 mm 0.00 in0.0 mm 0.00 in0.0 mm
12:02 AM 82.9°F28.3°C 69.9°F21.1°C 65% 5.0 mph SE8.0 kmh SE 9.0 mph14.5 kmh 29.85 in1010.8 mb 0.00 in0.0 mm 0.00 in0.0 mm 0.00 in0.0 mm
12:04 AM 82.8°F28.2°C 69.8°F21.0°C 65% 6.0 mph S9.7 kmh S 9.0 mph14.5 kmh 29.86 in1011.2 mb 0.00 in0.0 mm 0.00 in0.0 mm 0.00 in0.0 mm
12:06 AM 82.8°F28.2°C 70.3°F21.3°C 66% 8.0 mph S12.9 kmh S 10.0 mph16.1 kmh 29.86 in1011.2 mb 0.00 in0.0 mm 0.00 in0.0 mm 0.00 in0.0 mm
12:08 AM 82.8°F28.2°C 70.3°F21.3°C 66% 9.0 mph SSE14.5 kmh SSE 11.0 mph17.7 kmh 29.86 in1011.2 mb 0.00 in0.0 mm 0.00 in0.0 mm 0.00 in0.0 mm
12:10 AM 82.8°F28.2°C 70.3°F21.3°C 66% 7.0 mph S11.3 kmh S 11.0 mph17.7 kmh 29.86 in1011.2 mb 0.00 in0.0 mm 0.00 in0.0 mm 0.00 in0.0 mm
12:12 AM 82.7°F28.2°C 70.2°F21.2°C 66% 2.0 mph SE3.2 kmh SE 11.0 mph17.7 kmh 29.86 in1011.2 mb 0.00 in0.0 mm 0.00 in0.0 mm 0.00 in0.0 mm
12:14 AM 82.7°F28.2°C 70.2°F21.2°C 66% 6.0 mph S9.7 kmh S 11.0 mph17.7 kmh 29.86 in1011.2 mb 0.00 in0.0 mm 0.00 in0.0 mm 0.00 in0.0 mm
12:16 AM 82.7°F28.2°C 70.2°F21.2°C 66% 10.0 mph SSE16.1 kmh SSE 12.0 mph19.3 kmh 29.86 in1011.2 mb 0.00 in0.0 mm 0.00 in0.0 mm 0.00 in0.0 mm
12:18 AM 82.7°F28.2°C 70.2°F21.2°C 66% 11.0 mph S17.7 kmh S 12.0 mph19.3 kmh 29.86 in1011.2 mb 0.00 in0.0 mm 0.00 in0.0 mm 0.00 in0.0 mm
12:20 AM 82.7°F28.2°C 70.2°F21.2°C 66% 6.0 mph SSE9.7 kmh SSE 12.0 mph19.3 kmh 29.86 in1011.2 mb 0.00 in0.0 mm 0.00 in0.0 mm 0.00 in0.0 mm
12:22 AM 82.6°F28.1°C 70.1°F21.2°C 66% 4.0 mph SE6.4 kmh SE 12.0 mph19.3 kmh 29.86 in1011.2 mb 0.00 in0.0 mm 0.00 in0.0 mm 0.00 in0.0 mm
12:24 AM 82.6°F28.1°C 70.1°F21.2°C 66% 4.0 mph S6.4 kmh S 12.0 mph19.3 kmh 29.86 in1011.2 mb 0.00 in0.0 mm 0.00 in0.0 mm 0.00 in0.0 mm
12:26 AM 82.6°F28.1°C 70.1°F21.2°C 66% 6.0 mph S9.7 kmh S 12.0 mph19.3 kmh 29.86 in1011.2 mb 0.00 in0.0 mm 0.00 in0.0 mm 0.00 in0.0 mm
12:28 AM 82.6°F28.1°C 70.1°F21.2°C 66% 4.0 mph S6.4 kmh S 12.0 mph19.3 kmh 29.86 in1011.2 mb 0.00 in0.0 mm 0.00 in0.0 mm 0.00 in0.0 mm
12:30 AM 82.6°F28.1°C 70.1°F21.2°C 66% 8.0 mph SE12.9 kmh SE 12.0 mph19.3 kmh 29.86 in1011.2 mb 0.00 in0.0 mm 0.00 in0.0 mm 0.00 in0.0 mm
12:32 AM 82.6°F28.1°C 70.1°F21.2°C 66% 9.0 mph SSE14.5 kmh SSE 9.0 mph14.5 kmh 29.86 in1011.2 mb 0.00 in0.0 mm 0.00 in0.0 mm 0.00 in0.0 mm
12:34 AM 82.6°F28.1°C 70.1°F21.2°C 66% 7.0 mph S11.3 kmh S 11.0 mph17.7 kmh 29.86 in1011.2 mb 0.00 in0.0 mm 0.00 in0.0 mm 0.00 in0.0 mm
12:36 AM 82.5°F28.1°C 70.0°F21.1°C 66% 4.0 mph SSE6.4 kmh SSE 13.0 mph20.9 kmh 29.86 in1011.2 mb 0.00 in0.0 mm 0.00 in0.0 mm 0.00 in0.0 mm
12:38 AM 82.5°F28.1°C 70.0°F21.1°C 66% 2.0 mph SSE3.2 kmh SSE 13.0 mph20.9 kmh 29.86 in1011.2 mb 0.00 in0.0 mm 0.00 in0.0 mm 0.00 in0.0 mm
12:40 AM 82.5°F28.1°C 70.0°F21.1°C 66% 14.0 mph SSW22.5 kmh SSW 14.0 mph22.5 kmh 29.86 in1011.2 mb 0.00 in0.0 mm 0.00 in0.0 mm 0.00 in0.0 mm
12:42 AM 82.5°F28.1°C 70.5°F21.4°C 67% 6.0 mph SE9.7 kmh SE 14.0 mph22.5 kmh 29.86 in1011.2 mb 0.00 in0.0 mm 0.00 in0.0 mm 0.00 in0.0 mm
12:44 AM 82.5°F28.1°C 70.5°F21.4°C 67% 5.0 mph S8.0 kmh S 14.0 mph22.5 kmh 29.86 in1011.2 mb 0.00 in0.0 mm 0.00 in0.0 mm 0.00 in0.0 mm
12:46 AM 82.5°F28.1°C 70.5°F21.4°C 67% 2.0 mph S3.2 kmh S 14.0 mph22.5 kmh 29.86 in1011.2 mb 0.00 in0.0 mm 0.00 in0.0 mm 0.00 in0.0 mm
12:48 AM 82.5°F28.1°C 70.5°F21.4°C 67% 5.0 mph SW8.0 kmh SW 14.0 mph22.5 kmh 29.86 in1011.2 mb 0.00 in0.0 mm 0.00 in0.0 mm 0.00 in0.0 mm
12:50 AM 82.5°F28.1°C 70.5°F21.4°C 67% 4.0 mph S6.4 kmh S 15.0 mph24.1 kmh 29.86 in1011.2 mb 0.00 in0.0 mm 0.00 in0.0 mm 0.00 in0.0 mm
12:52 AM 82.5°F28.1°C 70.5°F21.4°C 67% 3.0 mph SE4.8 kmh SE 15.0 mph24.1 kmh 29.86 in1011.2 mb 0.00 in0.0 mm 0.00 in0.0 mm 0.00 in0.0 mm
12:54 AM 82.5°F28.1°C 70.5°F21.4°C 67% 7.0 mph S11.3 kmh S 15.0 mph24.1 kmh 29.86 in1011.2 mb 0.00 in0.0 mm 0.00 in0.0 mm 0.00 in0.0 mm
12:56 AM 82.4°F28.0°C 70.4°F21.3°C 67% 4.0 mph SSW6.4 kmh SSW 15.0 mph24.1 kmh 29.86 in1011.2 mb 0.00 in0.0 mm 0.00 in0.0 mm 0.00 in0.0 mm
12:58 AM 82.4°F28.0°C 70.4°F21.3°C 67% 4.0 mph SSE6.4 kmh SSE 15.0 mph24.1 kmh 29.87 in1011.5 mb 0.00 in0.0 mm 0.00 in0.0 mm 0.00 in0.0 mm
01:00 AM 82.4°F28.0°C 70.4°F21.3°C 67% 13.0 mph SE20.9 kmh SE 15.0 mph24.1 kmh 29.86 in1011.2 mb 0.00 in0.0 mm 0.00 in0.0 mm 0.00 in0.0 mm
01:02 AM 82.4°F28.0°C 70.4°F21.3°C 67% 7.0 mph SSE11.3 kmh SSE 14.0 mph22.5 kmh 29.86 in1011.2 mb 0.00 in0.0 mm 0.00 in0.0 mm 0.00 in0.0 mm
01:04 AM 82.4°F28.0°C 70.4°F21.3°C 67% 2.0 mph SE3.2 kmh SE 14.0 mph22.5 kmh 29.86 in1011.2 mb 0.00 in0.0 mm 0.00 in0.0 mm 0.00 in0.0 mm
01:06 AM 82.3°F27.9°C 70.7°F21.5°C 68% 10.0 mph S16.1 kmh S 14.0 mph22.5 kmh 29.86 in1011.2 mb 0.00 in0.0 mm 0.00 in0.0 mm 0.00 in0.0 mm
01:08 AM 82.3°F27.9°C 70.7°F21.5°C 68% 7.0 mph ESE11.3 kmh ESE 14.0 mph22.5 kmh 29.87 in1011.5 mb 0.00 in0.0 mm 0.00 in0.0 mm 0.00 in0.0 mm
01:10 AM 82.3°F27.9°C 70.7°F21.5°C 68% 10.0 mph SE16.1 kmh SE 14.0 mph22.5 kmh 29.87 in1011.5 mb 0.00 in0.0 mm 0.00 in0.0 mm 0.00 in0.0 mm
01:12 AM 82.2°F27.9°C 70.6°F21.4°C 68% 9.0 mph S14.5 kmh S 14.0 mph22.5 kmh 29.86 in1011.2 mb 0.00 in0.0 mm 0.00 in0.0 mm 0.00 in0.0 mm
01:14 AM 82.2°F27.9°C 70.6°F21.4°C 68% 6.0 mph SSE9.7 kmh SSE 21.0 mph33.8 kmh 29.86 in1011.2 mb 0.00 in0.0 mm 0.00 in0.0 mm 0.00 in0.0 mm
01:16 AM 82.1°F27.8°C 70.5°F21.4°C 68% 11.0 mph S17.7 kmh S 21.0 mph33.8 kmh 29.87 in1011.5 mb 0.00 in0.0 mm 0.00 in0.0 mm 0.00 in0.0 mm
01:18 AM 82.1°F27.8°C 70.5°F21.4°C 68% 7.0 mph SSE11.3 kmh SSE 21.0 mph33.8 kmh 29.87 in1011.5 mb 0.00 in0.0 mm 0.00 in0.0 mm 0.00 in0.0 mm
01:20 AM 82.1°F27.8°C 70.5°F21.4°C 68% 6.0 mph SE9.7 kmh SE 21.0 mph33.8 kmh 29.86 in1011.2 mb 0.00 in0.0 mm 0.00 in0.0 mm 0.00 in0.0 mm
01:22 AM 82.0°F27.8°C 70.4°F21.3°C 68% 9.0 mph S14.5 kmh S 21.0 mph33.8 kmh 29.87 in1011.5 mb 0.00 in0.0 mm 0.00 in0.0 mm 0.00 in0.0 mm
01:24 AM 82.0°F27.8°C 70.4°F21.3°C 68% 9.0 mph S14.5 kmh S 21.0 mph33.8 kmh 29.86 in1011.2 mb 0.00 in0.0 mm 0.00 in0.0 mm 0.00 in0.0 mm
01:26 AM 82.0°F27.8°C 70.4°F21.3°C 68% 6.0 mph SW9.7 kmh SW 21.0 mph33.8 kmh 29.87 in1011.5 mb 0.00 in0.0 mm 0.00 in0.0 mm 0.00 in0.0 mm
01:28 AM 82.0°F27.8°C 70.8°F21.6°C 69% 12.0 mph S19.3 kmh S 21.0 mph33.8 kmh 29.87 in1011.5 mb 0.00 in0.0 mm 0.00 in0.0 mm 0.00 in0.0 mm
01:30 AM 81.9°F27.7°C 70.7°F21.5°C 69% 4.0 mph S6.4 kmh S 21.0 mph33.8 kmh 29.87 in1011.5 mb 0.00 in0.0 mm 0.00 in0.0 mm 0.00 in0.0 mm
01:32 AM 81.9°F27.7°C 70.7°F21.5°C 69% 9.0 mph S14.5 kmh S 9.0 mph14.5 kmh 29.87 in1011.5 mb 0.00 in0.0 mm 0.00 in0.0 mm 0.00 in0.0 mm
01:34 AM 81.7°F27.6°C 70.6°F21.4°C 69% 5.0 mph SE8.0 kmh SE 12.0 mph19.3 kmh 29.87 in1011.5 mb 0.00 in0.0 mm 0.00 in0.0 mm 0.00 in0.0 mm
01:36 AM 81.7°F27.6°C 70.6°F21.4°C 69% 7.0 mph SSW11.3 kmh SSW 13.0 mph20.9 kmh 29.86 in1011.2 mb 0.00 in0.0 mm 0.00 in0.0 mm 0.00 in0.0 mm
01:38 AM 81.7°F27.6°C 70.6°F21.4°C 69% 8.0 mph SSW12.9 kmh SSW 13.0 mph20.9 kmh 29.86 in1011.2 mb 0.00 in0.0 mm 0.00 in0.0 mm 0.00 in0.0 mm
01:40 AM 81.6°F27.6°C 70.5°F21.4°C 69% 9.0 mph SSW14.5 kmh SSW 13.0 mph20.9 kmh 29.86 in1011.2 mb 0.00 in0.0 mm 0.00 in0.0 mm 0.00 in0.0 mm
01:42 AM 81.6°F27.6°C 70.5°F21.4°C 69% 4.0 mph SE6.4 kmh SE 13.0 mph20.9 kmh 29.87 in1011.5 mb 0.00 in0.0 mm 0.00 in0.0 mm 0.00 in0.0 mm
01:44 AM 81.5°F27.5°C 70.8°F21.6°C 70% 6.0 mph SSE9.7 kmh SSE 13.0 mph20.9 kmh 29.87 in1011.5 mb 0.00 in0.0 mm 0.00 in0.0 mm 0.00 in0.0 mm
01:46 AM 81.5°F27.5°C 70.8°F21.6°C 70% 10.0 mph S16.1 kmh S 15.0 mph24.1 kmh 29.87 in1011.5 mb 0.00 in0.0 mm 0.00 in0.0 mm 0.00 in0.0 mm
01:48 AM 81.5°F27.5°C 70.8°F21.6°C 70% 12.0 mph S19.3 kmh S 15.0 mph24.1 kmh 29.87 in1011.5 mb 0.00 in0.0 mm 0.00 in0.0 mm 0.00 in0.0 mm
01:50 AM 81.5°F27.5°C 70.8°F21.6°C 70% 9.0 mph S14.5 kmh S 15.0 mph24.1 kmh 29.87 in1011.5 mb 0.00 in0.0 mm 0.00 in0.0 mm 0.00 in0.0 mm
01:52 AM 81.5°F27.5°C 70.8°F21.6°C 70% 8.0 mph SE12.9 kmh SE 15.0 mph24.1 kmh 29.87 in1011.5 mb 0.00 in0.0 mm 0.00 in0.0 mm 0.00 in0.0 mm
01:54 AM 81.4°F27.4°C 70.7°F21.5°C 70% 6.0 mph S9.7 kmh S 15.0 mph24.1 kmh 29.87 in1011.5 mb 0.00 in0.0 mm 0.00 in0.0 mm 0.00 in0.0 mm
01:56 AM 81.3°F27.4°C 70.6°F21.4°C 70% 9.0 mph SE14.5 kmh SE 21.0 mph33.8 kmh 29.87 in1011.5 mb 0.00 in0.0 mm 0.00 in0.0 mm 0.00 in0.0 mm
01:58 AM 81.3°F27.4°C 70.6°F21.4°C 70% 9.0 mph SE14.5 kmh SE 21.0 mph33.8 kmh 29.87 in1011.5 mb 0.00 in0.0 mm 0.00 in0.0 mm 0.00 in0.0 mm
02:00 AM 81.3°F27.4°C 70.6°F21.4°C 70% 12.0 mph SSE19.3 kmh SSE 21.0 mph33.8 kmh 29.87 in1011.5 mb 0.00 in0.0 mm 0.00 in0.0 mm 0.00 in0.0 mm
02:02 AM 81.3°F27.4°C 70.6°F21.4°C 70% 5.0 mph S8.0 kmh S 13.0 mph20.9 kmh 29.87 in1011.5 mb 0.00 in0.0 mm 0.00 in0.0 mm 0.00 in0.0 mm
02:04 AM 81.2°F27.3°C 70.5°F21.4°C 70% 7.0 mph S11.3 kmh S 17.0 mph27.4 kmh 29.87 in1011.5 mb 0.00 in0.0 mm 0.00 in0.0 mm 0.00 in0.0 mm
02:06 AM 81.2°F27.3°C 70.5°F21.4°C 70% 9.0 mph S14.5 kmh S 21.0 mph33.8 kmh 29.87 in1011.5 mb 0.00 in0.0 mm 0.00 in0.0 mm 0.00 in0.0 mm
02:08 AM 81.1°F27.3°C 70.4°F21.3°C 70% 4.0 mph SSE6.4 kmh SSE 21.0 mph33.8 kmh 29.87 in1011.5 mb 0.00 in0.0 mm 0.00 in0.0 mm 0.00 in0.0 mm
02:10 AM 81.1°F27.3°C 70.8°F21.6°C 71% 9.0 mph SE14.5 kmh SE 21.0 mph33.8 kmh 29.87 in1011.5 mb 0.00 in0.0 mm 0.00 in0.0 mm 0.00 in0.0 mm
02:12 AM 81.0°F27.2°C 70.7°F21.5°C 71% 5.0 mph S8.0 kmh S 21.0 mph33.8 kmh 29.87 in1011.5 mb 0.00 in0.0 mm 0.00 in0.0 mm 0.00 in0.0 mm
02:14 AM 80.9°F27.2°C 70.6°F21.4°C 71% 4.0 mph S6.4 kmh S 21.0 mph33.8 kmh 29.87 in1011.5 mb 0.00 in0.0 mm 0.00 in0.0 mm 0.00 in0.0 mm
02:16 AM 80.9°F27.2°C 70.6°F21.4°C 71% 6.0 mph S9.7 kmh S 21.0 mph33.8 kmh 29.87 in1011.5 mb 0.00 in0.0 mm 0.00 in0.0 mm 0.00 in0.0 mm
02:18 AM 80.9°F27.2°C 70.6°F21.4°C 71% 6.0 mph SSE9.7 kmh SSE 21.0 mph33.8 kmh 29.87 in1011.5 mb 0.00 in0.0 mm 0.00 in0.0 mm 0.00 in0.0 mm
02:20 AM 80.8°F27.1°C 70.5°F21.4°C 71% 3.0 mph S4.8 kmh S 21.0 mph33.8 kmh 29.87 in1011.5 mb 0.00 in0.0 mm 0.00 in0.0 mm 0.00 in0.0 mm
02:22 AM 80.8°F27.1°C 70.5°F21.4°C 71% 5.0 mph S8.0 kmh S 21.0 mph33.8 kmh 29.87 in1011.5 mb 0.00 in0.0 mm 0.00 in0.0 mm 0.00 in0.0 mm
02:24 AM 80.7°F27.1°C 70.4°F21.3°C 71% 9.0 mph SSE14.5 kmh SSE 21.0 mph33.8 kmh 29.87 in1011.5 mb 0.00 in0.0 mm 0.00 in0.0 mm 0.00 in0.0 mm
02:26 AM 80.7°F27.1°C 70.8°F21.6°C 72% 6.0 mph SSW9.7 kmh SSW 21.0 mph33.8 kmh 29.87 in1011.5 mb 0.00 in0.0 mm 0.00 in0.0 mm 0.00 in0.0 mm
02:28 AM 80.6°F27.0°C 70.8°F21.6°C 72% 3.0 mph SSE4.8 kmh SSE 21.0 mph33.8 kmh 29.86 in1011.2 mb 0.00 in0.0 mm 0.00 in0.0 mm 0.00 in0.0 mm
02:30 AM 80.6°F27.0°C 70.8°F21.6°C 72% 7.0 mph S11.3 kmh S 21.0 mph33.8 kmh 29.87 in1011.5 mb 0.00 in0.0 mm 0.00 in0.0 mm 0.00 in0.0 mm
02:32 AM 80.5°F26.9°C 70.7°F21.5°C 72% 18.0 mph SW29.0 kmh SW 18.0 mph29.0 kmh 29.87 in1011.5 mb 0.00 in0.0 mm 0.00 in0.0 mm 0.00 in0.0 mm
02:34 AM 80.4°F26.9°C 70.6°F21.4°C 72% 8.0 mph S12.9 kmh S 18.0 mph29.0 kmh 29.87 in1011.5 mb 0.00 in0.0 mm 0.00 in0.0 mm 0.00 in0.0 mm
02:36 AM 80.4°F26.9°C 70.6°F21.4°C 72% 4.0 mph SSE6.4 kmh SSE 18.0 mph29.0 kmh 29.87 in1011.5 mb 0.00 in0.0 mm 0.00 in0.0 mm 0.00 in0.0 mm
02:38 AM 80.4°F26.9°C 70.6°F21.4°C 72% 4.0 mph SE6.4 kmh SE 18.0 mph29.0 kmh 29.87 in1011.5 mb 0.00 in0.0 mm 0.00 in0.0 mm 0.00 in0.0 mm
02:40 AM 80.3°F26.8°C 70.5°F21.4°C 72% 5.0 mph S8.0 kmh S 18.0 mph29.0 kmh 29.87 in1011.5 mb 0.00 in0.0 mm 0.00 in0.0 mm 0.00 in0.0 mm
02:42 AM 80.3°F26.8°C 70.5°F21.4°C 72% 14.0 mph S22.5 kmh S 18.0 mph29.0 kmh 29.87 in1011.5 mb 0.00 in0.0 mm 0.00 in0.0 mm 0.00 in0.0 mm
02:43 AM 80.3°F26.8°C 70.9°F21.6°C 73% 9.0 mph SSE14.5 kmh SSE 18.0 mph29.0 kmh 29.87 in1011.5 mb 0.00 in0.0 mm 0.00 in0.0 mm 0.00 in0.0 mm
02:46 AM 80.3°F26.8°C 70.9°F21.6°C 73% 6.0 mph SSE9.7 kmh SSE 18.0 mph29.0 kmh 29.87 in1011.5 mb 0.00 in0.0 mm 0.00 in0.0 mm 0.00 in0.0 mm
02:48 AM 80.2°F26.8°C 70.8°F21.6°C 73% 8.0 mph SSW12.9 kmh SSW 18.0 mph29.0 kmh 29.87 in1011.5 mb 0.00 in0.0 mm 0.00 in0.0 mm 0.00 in0.0 mm
02:50 AM 80.2°F26.8°C 70.8°F21.6°C 73% 9.0 mph S14.5 kmh S 18.0 mph29.0 kmh 29.87 in1011.5 mb 0.00 in0.0 mm 0.00 in0.0 mm 0.00 in0.0 mm
02:52 AM 80.1°F26.7°C 70.7°F21.5°C 73% 6.0 mph S9.7 kmh S 18.0 mph29.0 kmh 29.87 in1011.5 mb 0.00 in0.0 mm 0.00 in0.0 mm 0.00 in0.0 mm
02:54 AM 80.0°F26.7°C 70.6°F21.4°C 73% 9.0 mph SSE14.5 kmh SSE 18.0 mph29.0 kmh 29.87 in1011.5 mb 0.00 in0.0 mm 0.00 in0.0 mm 0.00 in0.0 mm
02:56 AM 80.0°F26.7°C 70.6°F21.4°C 73% 6.0 mph SSW9.7 kmh SSW 18.0 mph29.0 kmh 29.87 in1011.5 mb 0.00 in0.0 mm 0.00 in0.0 mm 0.00 in0.0 mm
02:58 AM 79.9°F26.6°C 70.5°F21.4°C 73% 4.0 mph SE6.4 kmh SE 18.0 mph29.0 kmh 29.86 in1011.2 mb 0.00 in0.0 mm 0.00 in0.0 mm 0.00 in0.0 mm
03:00 AM 79.9°F26.6°C 70.5°F21.4°C 73% 4.0 mph SE6.4 kmh SE 18.0 mph29.0 kmh 29.86 in1011.2 mb 0.00 in0.0 mm 0.00 in0.0 mm 0.00 in0.0 mm
03:02 AM 79.8°F26.6°C 70.8°F21.6°C 74% 9.0 mph SSW14.5 kmh SSW 12.0 mph19.3 kmh 29.87 in1011.5 mb 0.00 in0.0 mm 0.00 in0.0 mm 0.00 in0.0 mm
03:04 AM 79.8°F26.6°C 70.8°F21.6°C 74% 8.0 mph ESE12.9 kmh ESE 12.0 mph19.3 kmh 29.87 in1011.5 mb 0.00 in0.0 mm 0.00 in0.0 mm 0.00 in0.0 mm
03:06 AM 79.7°F26.5°C 70.7°F21.5°C 74% 9.0 mph SSW14.5 kmh SSW 14.0 mph22.5 kmh 29.87 in1011.5 mb 0.00 in0.0 mm 0.00 in0.0 mm 0.00 in0.0 mm
03:08 AM 79.7°F26.5°C 70.7°F21.5°C 74% 8.0 mph S12.9 kmh S 14.0 mph22.5 kmh 29.87 in1011.5 mb 0.00 in0.0 mm 0.00 in0.0 mm 0.00 in0.0 mm
03:10 AM 79.7°F26.5°C 70.7°F21.5°C 74% 12.0 mph SSE19.3 kmh SSE 15.0 mph24.1 kmh 29.87 in1011.5 mb 0.00 in0.0 mm 0.00 in0.0 mm 0.00 in0.0 mm
03:12 AM 79.7°F26.5°C 70.7°F21.5°C 74% 8.0 mph S12.9 kmh S 17.0 mph27.4 kmh 29.87 in1011.5 mb 0.00 in0.0 mm 0.00 in0.0 mm 0.00 in0.0 mm
03:14 AM 79.6°F26.4°C 70.6°F21.4°C 74% 4.0 mph S6.4 kmh S 17.0 mph27.4 kmh 29.87 in1011.5 mb 0.00 in0.0 mm 0.00 in0.0 mm 0.00 in0.0 mm
03:16 AM 79.6°F26.4°C 70.6°F21.4°C 74% 7.0 mph SE11.3 kmh SE 17.0 mph27.4 kmh 29.87 in1011.5 mb 0.00 in0.0 mm 0.00 in0.0 mm 0.00 in0.0 mm
03:18 AM 79.5°F26.4°C 70.5°F21.4°C 74% 6.0 mph S9.7 kmh S 17.0 mph27.4 kmh 29.87 in1011.5 mb 0.00 in0.0 mm 0.00 in0.0 mm 0.00 in0.0 mm
03:20 AM 79.4°F26.3°C 70.8°F21.6°C 75% 5.0 mph SE8.0 kmh SE 17.0 mph27.4 kmh 29.87 in1011.5 mb 0.00 in0.0 mm 0.00 in0.0 mm 0.00 in0.0 mm
03:22 AM 79.4°F26.3°C 70.8°F21.6°C 75% 7.0 mph S11.3 kmh S 17.0 mph27.4 kmh 29.87 in1011.5 mb 0.00 in0.0 mm 0.00 in0.0 mm 0.00 in0.0 mm
03:24 AM 79.3°F26.3°C 70.7°F21.5°C 75% 7.0 mph SSE11.3 kmh SSE 17.0 mph27.4 kmh 29.87 in1011.5 mb 0.00 in0.0 mm 0.00 in0.0 mm 0.00 in0.0 mm
03:26 AM 79.3°F26.3°C 70.7°F21.5°C 75% 4.0 mph SE6.4 kmh SE 17.0 mph27.4 kmh 29.87 in1011.5 mb 0.00 in0.0 mm 0.00 in0.0 mm 0.00 in0.0 mm
03:28 AM 79.3°F26.3°C 70.7°F21.5°C 75% 6.0 mph SE9.7 kmh SE 17.0 mph27.4 kmh 29.87 in1011.5 mb 0.00 in0.0 mm 0.00 in0.0 mm 0.00 in0.0 mm
03:30 AM 79.2°F26.2°C 70.6°F21.4°C 75% 7.0 mph S11.3 kmh S 17.0 mph27.4 kmh 29.87 in1011.5 mb 0.00 in0.0 mm 0.00 in0.0 mm 0.00 in0.0 mm
03:32 AM 79.2°F26.2°C 70.6°F21.4°C 75% 8.0 mph S12.9 kmh S 10.0 mph16.1 kmh 29.87 in1011.5 mb 0.00 in0.0 mm 0.00 in0.0 mm 0.00 in0.0 mm
03:34 AM 79.1°F26.2°C 70.5°F21.4°C 75% 1.0 mph SSE1.6 kmh SSE 13.0 mph20.9 kmh 29.87 in1011.5 mb 0.00 in0.0 mm 0.00 in0.0 mm 0.00 in0.0 mm
03:36 AM 79.1°F26.2°C 70.5°F21.4°C 75% 2.0 mph S3.2 kmh S 13.0 mph20.9 kmh 29.87 in1011.5 mb 0.00 in0.0 mm 0.00 in0.0 mm 0.00 in0.0 mm
03:38 AM 79.0°F26.1°C 70.4°F21.3°C 75% 7.0 mph S11.3 kmh S 14.0 mph22.5 kmh 29.87 in1011.5 mb 0.00 in0.0 mm 0.00 in0.0 mm 0.00 in0.0 mm
03:40 AM 79.0°F26.1°C 70.4°F21.3°C 75% 5.0 mph S8.0 kmh S 14.0 mph22.5 kmh 29.87 in1011.5 mb 0.00 in0.0 mm 0.00 in0.0 mm 0.00 in0.0 mm
03:42 AM 78.9°F26.1°C 70.7°F21.5°C 76% 4.0 mph SE6.4 kmh SE 14.0 mph22.5 kmh 29.87 in1011.5 mb 0.00 in0.0 mm 0.00 in0.0 mm 0.00 in0.0 mm
03:44 AM 78.9°F26.1°C 70.7°F21.5°C 76% 5.0 mph S8.0 kmh S 16.0 mph25.7 kmh 29.87 in1011.5 mb 0.00 in0.0 mm 0.00 in0.0 mm 0.00 in0.0 mm
03:46 AM 78.8°F26.0°C 70.6°F21.4°C 76% 9.0 mph S14.5 kmh S 16.0 mph25.7 kmh 29.87 in1011.5 mb 0.00 in0.0 mm 0.00 in0.0 mm 0.00 in0.0 mm
03:48 AM 78.7°F25.9°C 70.5°F21.4°C 76% 7.0 mph S11.3 kmh S 16.0 mph25.7 kmh 29.87 in1011.5 mb 0.00 in0.0 mm 0.00 in0.0 mm 0.00 in0.0 mm
03:50 AM 78.7°F25.9°C 70.5°F21.4°C 76% 5.0 mph S8.0 kmh S 16.0 mph25.7 kmh 29.87 in1011.5 mb 0.00 in0.0 mm 0.00 in0.0 mm 0.00 in0.0 mm
03:52 AM 78.6°F25.9°C 70.4°F21.3°C 76% 5.0 mph S8.0 kmh S 16.0 mph25.7 kmh 29.87 in1011.5 mb 0.00 in0.0 mm 0.00 in0.0 mm 0.00 in0.0 mm
03:54 AM 78.6°F25.9°C 70.4°F21.3°C 76% 8.0 mph S12.9 kmh S 16.0 mph25.7 kmh 29.87 in1011.5 mb 0.00 in0.0 mm 0.00 in0.0 mm 0.00 in0.0 mm
03:56 AM 78.6°F25.9°C 70.4°F21.3°C 76% 8.0 mph S12.9 kmh S 16.0 mph25.7 kmh 29.87 in1011.5 mb 0.00 in0.0 mm 0.00 in0.0 mm 0.00 in0.0 mm
03:58 AM 78.6°F25.9°C 70.4°F21.3°C 76% 11.0 mph S17.7 kmh S 16.0 mph25.7 kmh 29.87 in1011.5 mb 0.00 in0.0 mm 0.00 in0.0 mm 0.00 in0.0 mm
04:00 AM 78.5°F25.8°C 70.3°F21.3°C 76% 12.0 mph SE19.3 kmh SE 16.0 mph25.7 kmh 29.87 in1011.5 mb 0.00 in0.0 mm 0.00 in0.0 mm 0.00 in0.0 mm
04:02 AM 78.5°F25.8°C 70.7°F21.5°C 77% 5.0 mph SE8.0 kmh SE 11.0 mph17.7 kmh 29.87 in1011.5 mb 0.00 in0.0 mm 0.00 in0.0 mm 0.00 in0.0 mm
04:04 AM 78.4°F25.8°C 70.6°F21.4°C 77% 10.0 mph S16.1 kmh S 11.0 mph17.7 kmh 29.87 in1011.5 mb 0.00 in0.0 mm 0.00 in0.0 mm 0.00 in0.0 mm
04:06 AM 78.4°F25.8°C 70.6°F21.4°C 77% 3.0 mph SE4.8 kmh SE 12.0 mph19.3 kmh 29.87 in1011.5 mb 0.00 in0.0 mm 0.00 in0.0 mm 0.00 in0.0 mm
04:08 AM 78.4°F25.8°C 70.6°F21.4°C 77% 3.0 mph SE4.8 kmh SE 12.0 mph19.3 kmh 29.87 in1011.5 mb 0.00 in0.0 mm 0.00 in0.0 mm 0.00 in0.0 mm
04:10 AM 78.3°F25.7°C 70.5°F21.4°C 77% 5.0 mph S8.0 kmh S 12.0 mph19.3 kmh 29.87 in1011.5 mb 0.00 in0.0 mm 0.00 in0.0 mm 0.00 in0.0 mm
04:12 AM 78.3°F25.7°C 70.5°F21.4°C 77% 5.0 mph SSE8.0 kmh SSE 12.0 mph19.3 kmh 29.87 in1011.5 mb 0.00 in0.0 mm 0.00 in0.0 mm 0.00 in0.0 mm
04:14 AM 78.2°F25.7°C 70.4°F21.3°C 77% 2.0 mph S3.2 kmh S 12.0 mph19.3 kmh 29.87 in1011.5 mb 0.00 in0.0 mm 0.00 in0.0 mm 0.00 in0.0 mm
04:16 AM 78.2°F25.7°C 70.4°F21.3°C 77% 5.0 mph S8.0 kmh S 12.0 mph19.3 kmh 29.87 in1011.5 mb 0.00 in0.0 mm 0.00 in0.0 mm 0.00 in0.0 mm
04:18 AM 78.1°F25.6°C 70.3°F21.3°C 77% 3.0 mph SE4.8 kmh SE 12.0 mph19.3 kmh 29.88 in1011.9 mb 0.00 in0.0 mm 0.00 in0.0 mm 0.00 in0.0 mm
04:20 AM 78.1°F25.6°C 70.3°F21.3°C 77% 12.0 mph S19.3 kmh S 12.0 mph19.3 kmh 29.87 in1011.5 mb 0.00 in0.0 mm 0.00 in0.0 mm 0.00 in0.0 mm
04:22 AM 78.1°F25.6°C 70.3°F21.3°C 77% 10.0 mph SSW16.1 kmh SSW 12.0 mph19.3 kmh 29.88 in1011.9 mb 0.00 in0.0 mm 0.00 in0.0 mm 0.00 in0.0 mm
04:24 AM 78.0°F25.6°C 70.2°F21.2°C 77% 5.0 mph S8.0 kmh S 12.0 mph19.3 kmh 29.88 in1011.9 mb 0.00 in0.0 mm 0.00 in0.0 mm 0.00 in0.0 mm
04:26 AM 78.0°F25.6°C 70.6°F21.4°C 78% 10.0 mph S16.1 kmh S 14.0 mph22.5 kmh 29.88 in1011.9 mb 0.00 in0.0 mm 0.00 in0.0 mm 0.00 in0.0 mm
04:28 AM 78.0°F25.6°C 70.6°F21.4°C 78% 9.0 mph S14.5 kmh S 14.0 mph22.5 kmh 29.88 in1011.9 mb 0.00 in0.0 mm 0.00 in0.0 mm 0.00 in0.0 mm
04:30 AM 77.9°F25.5°C 70.5°F21.4°C 78% 6.0 mph SSE9.7 kmh SSE 14.0 mph22.5 kmh 29.88 in1011.9 mb 0.00 in0.0 mm 0.00 in0.0 mm 0.00 in0.0 mm
04:32 AM 77.9°F25.5°C 70.5°F21.4°C 78% 5.0 mph S8.0 kmh S 9.0 mph14.5 kmh 29.88 in1011.9 mb 0.00 in0.0 mm 0.00 in0.0 mm 0.00 in0.0 mm
04:34 AM 77.9°F25.5°C 70.5°F21.4°C 78% 3.0 mph S4.8 kmh S 14.0 mph22.5 kmh 29.88 in1011.9 mb 0.00 in0.0 mm 0.00 in0.0 mm 0.00 in0.0 mm
04:36 AM 77.8°F25.4°C 70.4°F21.3°C 78% 13.0 mph S20.9 kmh S 14.0 mph22.5 kmh 29.88 in1011.9 mb 0.00 in0.0 mm 0.00 in0.0 mm 0.00 in0.0 mm
04:38 AM 77.7°F25.4°C 70.3°F21.3°C 78% 12.0 mph S19.3 kmh S 14.0 mph22.5 kmh 29.88 in1011.9 mb 0.00 in0.0 mm 0.00 in0.0 mm 0.00 in0.0 mm
04:40 AM 77.7°F25.4°C 70.3°F21.3°C 78% 8.0 mph SE12.9 kmh SE 15.0 mph24.1 kmh 29.88 in1011.9 mb 0.00 in0.0 mm 0.00 in0.0 mm 0.00 in0.0 mm
04:42 AM 77.7°F25.4°C 70.3°F21.3°C 78% 5.0 mph S8.0 kmh S 15.0 mph24.1 kmh 29.88 in1011.9 mb 0.00 in0.0 mm 0.00 in0.0 mm 0.00 in0.0 mm
04:44 AM 77.6°F25.3°C 70.2°F21.2°C 78% 4.0 mph SSW6.4 kmh SSW 15.0 mph24.1 kmh 29.88 in1011.9 mb 0.00 in0.0 mm 0.00 in0.0 mm 0.00 in0.0 mm
04:46 AM 77.6°F25.3°C 70.6°F21.4°C 79% 5.0 mph SSE8.0 kmh SSE 15.0 mph24.1 kmh 29.87 in1011.5 mb 0.00 in0.0 mm 0.00 in0.0 mm 0.00 in0.0 mm
04:48 AM 77.6°F25.3°C 70.6°F21.4°C 79% 5.0 mph S8.0 kmh S 15.0 mph24.1 kmh 29.88 in1011.9 mb 0.00 in0.0 mm 0.00 in0.0 mm 0.00 in0.0 mm
04:50 AM 77.6°F25.3°C 70.6°F21.4°C 79% 7.0 mph S11.3 kmh S 15.0 mph24.1 kmh 29.88 in1011.9 mb 0.00 in0.0 mm 0.00 in0.0 mm 0.00 in0.0 mm
04:52 AM 77.5°F25.3°C 70.5°F21.4°C 79% 3.0 mph S4.8 kmh S 15.0 mph24.1 kmh 29.88 in1011.9 mb 0.00 in0.0 mm 0.00 in0.0 mm 0.00 in0.0 mm
04:54 AM 77.5°F25.3°C 70.5°F21.4°C 79% 7.0 mph S11.3 kmh S 15.0 mph24.1 kmh 29.88 in1011.9 mb 0.00 in0.0 mm 0.00 in0.0 mm 0.00 in0.0 mm
04:56 AM 77.5°F25.3°C 70.5°F21.4°C 79% 4.0 mph S6.4 kmh S 15.0 mph24.1 kmh 29.88 in1011.9 mb 0.00 in0.0 mm 0.00 in0.0 mm 0.00 in0.0 mm
04:58 AM 77.5°F25.3°C 70.5°F21.4°C 79% 5.0 mph SSE8.0 kmh SSE 15.0 mph24.1 kmh 29.88 in1011.9 mb 0.00 in0.0 mm 0.00 in0.0 mm 0.00 in0.0 mm
05:00 AM 77.5°F25.3°C 70.5°F21.4°C 79% 8.0 mph SW12.9 kmh SW 15.0 mph24.1 kmh 29.88 in1011.9 mb 0.00 in0.0 mm 0.00 in0.0 mm 0.00 in0.0 mm
05:02 AM 77.4°F25.2°C 70.4°F21.3°C 79% 7.0 mph SSW11.3 kmh SSW 11.0 mph17.7 kmh 29.88 in1011.9 mb 0.00 in0.0 mm 0.00 in0.0 mm 0.00 in0.0 mm
05:04 AM 77.4°F25.2°C 70.4°F21.3°C 79% 6.0 mph SE9.7 kmh SE 13.0 mph20.9 kmh 29.88 in1011.9 mb 0.00 in0.0 mm 0.00 in0.0 mm 0.00 in0.0 mm
05:06 AM 77.4°F25.2°C 70.4°F21.3°C 79% 10.0 mph S16.1 kmh S 13.0 mph20.9 kmh 29.88 in1011.9 mb 0.00 in0.0 mm 0.00 in0.0 mm 0.00 in0.0 mm
05:08 AM 77.4°F25.2°C 70.4°F21.3°C 79% 10.0 mph SW16.1 kmh SW 13.0 mph20.9 kmh 29.89 in1012.2 mb 0.00 in0.0 mm 0.00 in0.0 mm 0.00 in0.0 mm
05:10 AM 77.4°F25.2°C 70.4°F21.3°C 79% 6.0 mph S9.7 kmh S 13.0 mph20.9 kmh 29.88 in1011.9 mb 0.00 in0.0 mm 0.00 in0.0 mm 0.00 in0.0 mm
05:12 AM 77.4°F25.2°C 70.4°F21.3°C 79% 8.0 mph S12.9 kmh S 13.0 mph20.9 kmh 29.89 in1012.2 mb 0.00 in0.0 mm 0.00 in0.0 mm 0.00 in0.0 mm
05:14 AM 77.3°F25.2°C 70.3°F21.3°C 79% 6.0 mph S9.7 kmh S 13.0 mph20.9 kmh 29.89 in1012.2 mb 0.00 in0.0 mm 0.00 in0.0 mm 0.00 in0.0 mm
05:16 AM 77.3°F25.2°C 70.3°F21.3°C 79% 2.0 mph S3.2 kmh S 13.0 mph20.9 kmh 29.89 in1012.2 mb 0.00 in0.0 mm 0.00 in0.0 mm 0.00 in0.0 mm
05:18 AM 77.3°F25.2°C 70.3°F21.3°C 79% 4.0 mph S6.4 kmh S 13.0 mph20.9 kmh 29.88 in1011.9 mb 0.00 in0.0 mm 0.00 in0.0 mm 0.00 in0.0 mm
05:20 AM 77.2°F25.1°C 70.2°F21.2°C 79% 7.0 mph SE11.3 kmh SE 13.0 mph20.9 kmh 29.89 in1012.2 mb 0.00 in0.0 mm 0.00 in0.0 mm 0.00 in0.0 mm
05:22 AM 77.2°F25.1°C 70.2°F21.2°C 79% 2.0 mph SE3.2 kmh SE 13.0 mph20.9 kmh 29.88 in1011.9 mb 0.00 in0.0 mm 0.00 in0.0 mm 0.00 in0.0 mm
05:24 AM 77.1°F25.1°C 70.1°F21.2°C 79% 5.0 mph S8.0 kmh S 13.0 mph20.9 kmh 29.89 in1012.2 mb 0.00 in0.0 mm 0.00 in0.0 mm 0.00 in0.0 mm
05:26 AM 77.0°F25.0°C 70.0°F21.1°C 79% 4.0 mph SE6.4 kmh SE 13.0 mph20.9 kmh 29.89 in1012.2 mb 0.00 in0.0 mm 0.00 in0.0 mm 0.00 in0.0 mm
05:28 AM 77.0°F25.0°C 70.4°F21.3°C 80% 4.0 mph S6.4 kmh S 13.0 mph20.9 kmh 29.89 in1012.2 mb 0.00 in0.0 mm 0.00 in0.0 mm 0.00 in0.0 mm
05:30 AM 76.9°F24.9°C 70.3°F21.3°C 80% 5.0 mph SSW8.0 kmh SSW 13.0 mph20.9 kmh 29.89 in1012.2 mb 0.00 in0.0 mm 0.00 in0.0 mm 0.00 in0.0 mm
05:32 AM 76.9°F24.9°C 70.3°F21.3°C 80% 4.0 mph S6.4 kmh S 6.0 mph9.7 kmh 29.89 in1012.2 mb 0.00 in0.0 mm 0.00 in0.0 mm 0.00 in0.0 mm
05:34 AM 76.8°F24.9°C 70.2°F21.2°C 80% 2.0 mph SSW3.2 kmh SSW 11.0 mph17.7 kmh 29.88 in1011.9 mb 0.00 in0.0 mm 0.00 in0.0 mm 0.00 in0.0 mm
05:36 AM 76.8°F24.9°C 70.2°F21.2°C 80% 11.0 mph S17.7 kmh S 11.0 mph17.7 kmh 29.89 in1012.2 mb 0.00 in0.0 mm 0.00 in0.0 mm 0.00 in0.0 mm
05:38 AM 76.8°F24.9°C 70.2°F21.2°C 80% 3.0 mph S4.8 kmh S 11.0 mph17.7 kmh 29.88 in1011.9 mb 0.00 in0.0 mm 0.00 in0.0 mm 0.00 in0.0 mm
05:40 AM 76.8°F24.9°C 69.8°F21.0°C 79% 12.0 mph S19.3 kmh S 12.0 mph19.3 kmh 29.88 in1011.9 mb 0.00 in0.0 mm 0.00 in0.0 mm 0.00 in0.0 mm
05:42 AM 76.8°F24.9°C 69.8°F21.0°C 79% 3.0 mph SSE4.8 kmh SSE 12.0 mph19.3 kmh 29.88 in1011.9 mb 0.00 in0.0 mm 0.00 in0.0 mm 0.00 in0.0 mm
05:44 AM 76.7°F24.8°C 70.1°F21.2°C 80% 2.0 mph S3.2 kmh S 12.0 mph19.3 kmh 29.89 in1012.2 mb 0.00 in0.0 mm 0.00 in0.0 mm 0.00 in0.0 mm
05:46 AM 76.8°F24.9°C 69.8°F21.0°C 79% 6.0 mph S9.7 kmh S 12.0 mph19.3 kmh 29.89 in1012.2 mb 0.00 in0.0 mm 0.00 in0.0 mm 0.00 in0.0 mm
05:48 AM 76.7°F24.8°C 70.1°F21.2°C 80% 4.0 mph S6.4 kmh S 12.0 mph19.3 kmh 29.89 in1012.2 mb 0.00 in0.0 mm 0.00 in0.0 mm 0.00 in0.0 mm
05:50 AM 76.7°F24.8°C 70.1°F21.2°C 80% 2.0 mph SSE3.2 kmh SSE 12.0 mph19.3 kmh 29.89 in1012.2 mb 0.00 in0.0 mm 0.00 in0.0 mm 0.00 in0.0 mm
05:52 AM 76.6°F24.8°C 70.0°F21.1°C 80% 4.0 mph S6.4 kmh S 13.0 mph20.9 kmh 29.89 in1012.2 mb 0.00 in0.0 mm 0.00 in0.0 mm 0.00 in0.0 mm
05:54 AM 76.6°F24.8°C 70.0°F21.1°C 80% 3.0 mph SSE4.8 kmh SSE 13.0 mph20.9 kmh 29.89 in1012.2 mb 0.00 in0.0 mm 0.00 in0.0 mm 0.00 in0.0 mm
05:56 AM 76.6°F24.8°C 70.0°F21.1°C 80% 4.0 mph S6.4 kmh S 13.0 mph20.9 kmh 29.89 in1012.2 mb 0.00 in0.0 mm 0.00 in0.0 mm 0.00 in0.0 mm
05:58 AM 76.6°F24.8°C 70.0°F21.1°C 80% 6.0 mph S9.7 kmh S 13.0 mph20.9 kmh 29.89 in1012.2 mb 0.00 in0.0 mm 0.00 in0.0 mm 0.00 in0.0 mm
06:00 AM 76.5°F24.7°C 69.9°F21.1°C 80% 5.0 mph SSW8.0 kmh SSW 13.0 mph20.9 kmh 29.89 in1012.2 mb 0.00 in0.0 mm 0.00 in0.0 mm 0.00 in0.0 mm
06:02 AM 76.5°F24.7°C 69.9°F21.1°C 80% 5.0 mph S8.0 kmh S 8.0 mph12.9 kmh 29.89 in1012.2 mb 0.00 in0.0 mm 0.00 in0.0 mm 0.00 in0.0 mm
06:04 AM 76.5°F24.7°C 69.9°F21.1°C 80% 2.0 mph SSW3.2 kmh SSW 8.0 mph12.9 kmh 29.89 in1012.2 mb 0.00 in0.0 mm 0.00 in0.0 mm 0.00 in0.0 mm
06:06 AM 76.5°F24.7°C 70.2°F21.2°C 81% 5.0 mph S8.0 kmh S 10.0 mph16.1 kmh 29.89 in1012.2 mb 0.00 in0.0 mm 0.00 in0.0 mm 0.00 in0.0 mm
06:08 AM 76.4°F24.7°C 70.1°F21.2°C 81% 4.0 mph SSW6.4 kmh SSW 10.0 mph16.1 kmh 29.89 in1012.2 mb 0.00 in0.0 mm 0.00 in0.0 mm 0.00 in0.0 mm
06:10 AM 76.4°F24.7°C 70.1°F21.2°C 81% 6.0 mph SW9.7 kmh SW 11.0 mph17.7 kmh 29.89 in1012.2 mb 0.00 in0.0 mm 0.00 in0.0 mm 0.00 in0.0 mm
06:12 AM 76.4°F24.7°C 70.1°F21.2°C 81% 5.0 mph SE8.0 kmh SE 11.0 mph17.7 kmh 29.89 in1012.2 mb 0.00 in0.0 mm 0.00 in0.0 mm 0.00 in0.0 mm
06:14 AM 76.4°F24.7°C 70.1°F21.2°C 81% 9.0 mph S14.5 kmh S 12.0 mph19.3 kmh 29.89 in1012.2 mb 0.00 in0.0 mm 0.00 in0.0 mm 0.00 in0.0 mm
06:16 AM 76.4°F24.7°C 70.1°F21.2°C 81% 9.0 mph SSE14.5 kmh SSE 12.0 mph19.3 kmh 29.89 in1012.2 mb 0.00 in0.0 mm 0.00 in0.0 mm 0.00 in0.0 mm
06:18 AM 76.4°F24.7°C 70.1°F21.2°C 81% 8.0 mph SSE12.9 kmh SSE 12.0 mph19.3 kmh 29.89 in1012.2 mb 0.00 in0.0 mm 0.00 in0.0 mm 0.00 in0.0 mm
06:20 AM 76.4°F24.7°C 70.1°F21.2°C 81% 10.0 mph S16.1 kmh S 12.0 mph19.3 kmh 29.89 in1012.2 mb 0.00 in0.0 mm 0.00 in0.0 mm 0.00 in0.0 mm
06:22 AM 76.4°F24.7°C 70.1°F21.2°C 81% 3.0 mph S4.8 kmh S 12.0 mph19.3 kmh 29.89 in1012.2 mb 0.00 in0.0 mm 0.00 in0.0 mm 0.00 in0.0 mm
06:24 AM 76.4°F24.7°C 70.1°F21.2°C 81% 6.0 mph SSE9.7 kmh SSE 12.0 mph19.3 kmh 29.89 in1012.2 mb 0.00 in0.0 mm 0.00 in0.0 mm 0.00 in0.0 mm
06:26 AM 76.4°F24.7°C 70.1°F21.2°C 81% 7.0 mph S11.3 kmh S 12.0 mph19.3 kmh 29.89 in1012.2 mb 0.00 in0.0 mm 0.00 in0.0 mm 0.00 in0.0 mm
06:28 AM 76.5°F24.7°C 70.2°F21.2°C 81% 8.0 mph SE12.9 kmh SE 12.0 mph19.3 kmh 29.89 in1012.2 mb 0.00 in0.0 mm 0.00 in0.0 mm 0.00 in0.0 mm
06:30 AM 76.4°F24.7°C 70.1°F21.2°C 81% 5.0 mph SSE8.0 kmh SSE 13.0 mph20.9 kmh 29.89 in1012.2 mb 0.00 in0.0 mm 0.00 in0.0 mm 0.00 in0.0 mm
06:32 AM 76.5°F24.7°C 70.2°F21.2°C 81% 7.0 mph S11.3 kmh S 9.0 mph14.5 kmh 29.89 in1012.2 mb 0.00 in0.0 mm 0.00 in0.0 mm 0.00 in0.0 mm
06:34 AM 76.5°F24.7°C 70.2°F21.2°C 81% 8.0 mph SSE12.9 kmh SSE 14.0 mph22.5 kmh 29.89 in1012.2 mb 0.00 in0.0 mm 0.00 in0.0 mm 0.00 in0.0 mm
06:36 AM 76.5°F24.7°C 70.2°F21.2°C 81% 5.0 mph S8.0 kmh S 14.0 mph22.5 kmh 29.89 in1012.2 mb 0.00 in0.0 mm 0.00 in0.0 mm 0.00 in0.0 mm
06:38 AM 76.6°F24.8°C 70.3°F21.3°C 81% 5.0 mph S8.0 kmh S 14.0 mph22.5 kmh 29.89 in1012.2 mb 0.00 in0.0 mm 0.00 in0.0 mm 0.00 in0.0 mm
06:40 AM 76.6°F24.8°C 70.3°F21.3°C 81% 2.0 mph SSE3.2 kmh SSE 14.0 mph22.5 kmh 29.89 in1012.2 mb 0.00 in0.0 mm 0.00 in0.0 mm 0.00 in0.0 mm
06:42 AM 76.6°F24.8°C 70.3°F21.3°C 81% 4.0 mph SSE6.4 kmh SSE 14.0 mph22.5 kmh 29.89 in1012.2 mb 0.00 in0.0 mm 0.00 in0.0 mm 0.00 in0.0 mm
06:44 AM 76.6°F24.8°C 70.3°F21.3°C 81% 10.0 mph S16.1 kmh S 14.0 mph22.5 kmh 29.89 in1012.2 mb 0.00 in0.0 mm 0.00 in0.0 mm 0.00 in0.0 mm
06:46 AM 76.6°F24.8°C 70.3°F21.3°C 81% 3.0 mph SSE4.8 kmh SSE 14.0 mph22.5 kmh 29.89 in1012.2 mb 0.00 in0.0 mm 0.00 in0.0 mm 0.00 in0.0 mm
06:48 AM 76.6°F24.8°C 70.3°F21.3°C 81% 7.0 mph S11.3 kmh S 14.0 mph22.5 kmh 29.89 in1012.2 mb 0.00 in0.0 mm 0.00 in0.0 mm 0.00 in0.0 mm
06:50 AM 76.6°F24.8°C 70.3°F21.3°C 81% 9.0 mph S14.5 kmh S 14.0 mph22.5 kmh 29.89 in1012.2 mb 0.00 in0.0 mm 0.00 in0.0 mm 0.00 in0.0 mm
06:52 AM 76.6°F24.8°C 70.3°F21.3°C 81% 8.0 mph S12.9 kmh S 14.0 mph22.5 kmh 29.89 in1012.2 mb 0.00 in0.0 mm 0.00 in0.0 mm 0.00 in0.0 mm
06:54 AM 76.7°F24.8°C 70.4°F21.3°C 81% 2.0 mph S3.2 kmh S 14.0 mph22.5 kmh 29.89 in1012.2 mb 0.00 in0.0 mm 0.00 in0.0 mm 0.00 in0.0 mm
06:56 AM 76.7°F24.8°C 70.4°F21.3°C 81% 6.0 mph SSE9.7 kmh SSE 14.0 mph22.5 kmh 29.89 in1012.2 mb 0.00 in0.0 mm 0.00 in0.0 mm 0.00 in0.0 mm
06:58 AM 76.6°F24.8°C 70.3°F21.3°C 81% 3.0 mph SE4.8 kmh SE 14.0 mph22.5 kmh 29.89 in1012.2 mb 0.00 in0.0 mm 0.00 in0.0 mm 0.00 in0.0 mm
06:59 AM 76.7°F24.8°C 70.4°F21.3°C 81% 4.0 mph S6.4 kmh S 14.0 mph22.5 kmh 29.89 in1012.2 mb 0.00 in0.0 mm 0.00 in0.0 mm 0.00 in0.0 mm
07:02 AM 76.7°F24.8°C 70.4°F21.3°C 81% 6.0 mph SSE9.7 kmh SSE 7.0 mph11.3 kmh 29.90 in1012.5 mb 0.00 in0.0 mm 0.00 in0.0 mm 0.00 in0.0 mm
07:04 AM 76.7°F24.8°C 70.4°F21.3°C 81% 8.0 mph SSE12.9 kmh SSE 8.0 mph12.9 kmh 29.90 in1012.5 mb 0.00 in0.0 mm 0.00 in0.0 mm 0.00 in0.0 mm
07:06 AM 76.7°F24.8°C 70.4°F21.3°C 81% 4.0 mph S6.4 kmh S 9.0 mph14.5 kmh 29.89 in1012.2 mb 0.00 in0.0 mm 0.00 in0.0 mm 0.00 in0.0 mm
07:08 AM 76.7°F24.8°C 70.4°F21.3°C 81% 11.0 mph SSE17.7 kmh SSE 11.0 mph17.7 kmh 29.89 in1012.2 mb 0.00 in0.0 mm 0.00 in0.0 mm 0.00 in0.0 mm
07:10 AM 76.7°F24.8°C 70.4°F21.3°C 81% 8.0 mph SSE12.9 kmh SSE 11.0 mph17.7 kmh 29.90 in1012.5 mb 0.00 in0.0 mm 0.00 in0.0 mm 0.00 in0.0 mm
07:12 AM 76.7°F24.8°C 70.4°F21.3°C 81% 7.0 mph SSE11.3 kmh SSE 11.0 mph17.7 kmh 29.90 in1012.5 mb 0.00 in0.0 mm 0.00 in0.0 mm 0.00 in0.0 mm
07:14 AM 76.7°F24.8°C 70.4°F21.3°C 81% 4.0 mph SE6.4 kmh SE 11.0 mph17.7 kmh 29.89 in1012.2 mb 0.00 in0.0 mm 0.00 in0.0 mm 0.00 in0.0 mm
07:16 AM 76.7°F24.8°C 70.4°F21.3°C 81% 3.0 mph SE4.8 kmh SE 11.0 mph17.7 kmh 29.90 in1012.5 mb 0.00 in0.0 mm 0.00 in0.0 mm 0.00 in0.0 mm
07:18 AM 76.8°F24.9°C 70.5°F21.4°C 81% 10.0 mph SE16.1 kmh SE 12.0 mph19.3 kmh 29.90 in1012.5 mb 0.00 in0.0 mm 0.00 in0.0 mm 0.00 in0.0 mm
07:20 AM 76.9°F24.9°C 70.6°F21.4°C 81% 6.0 mph S9.7 kmh S 12.0 mph19.3 kmh 29.90 in1012.5 mb 0.00 in0.0 mm 0.00 in0.0 mm 0.00 in0.0 mm
07:22 AM 76.9°F24.9°C 70.6°F21.4°C 81% 4.0 mph SE6.4 kmh SE 12.0 mph19.3 kmh 29.90 in1012.5 mb 0.00 in0.0 mm 0.00 in0.0 mm 0.00 in0.0 mm
07:24 AM 76.9°F24.9°C 70.6°F21.4°C 81% 3.0 mph SE4.8 kmh SE 12.0 mph19.3 kmh 29.90 in1012.5 mb 0.00 in0.0 mm 0.00 in0.0 mm 0.00 in0.0 mm
07:26 AM 76.9°F24.9°C 70.6°F21.4°C 81% 3.0 mph SSE4.8 kmh SSE 12.0 mph19.3 kmh 29.90 in1012.5 mb 0.00 in0.0 mm 0.00 in0.0 mm 0.00 in0.0 mm
07:28 AM 77.0°F25.0°C 70.7°F21.5°C 81% 5.0 mph SSE8.0 kmh SSE 12.0 mph19.3 kmh 29.90 in1012.5 mb 0.00 in0.0 mm 0.00 in0.0 mm 0.00 in0.0 mm
07:30 AM 77.1°F25.1°C 70.8°F21.6°C 81% 6.0 mph S9.7 kmh S 12.0 mph19.3 kmh 29.90 in1012.5 mb 0.00 in0.0 mm 0.00 in0.0 mm 0.00 in0.0 mm
07:32 AM 77.2°F25.1°C 70.9°F21.6°C 81% 7.0 mph S11.3 kmh S 11.0 mph17.7 kmh 29.90 in1012.5 mb 0.00 in0.0 mm 0.00 in0.0 mm 0.00 in0.0 mm
07:34 AM 77.3°F25.2°C 70.7°F21.5°C 80% 7.0 mph S11.3 kmh S 11.0 mph17.7 kmh 29.90 in1012.5 mb 0.00 in0.0 mm 0.00 in0.0 mm 0.00 in0.0 mm
07:36 AM 77.4°F25.2°C 70.8°F21.6°C 80% 5.0 mph SE8.0 kmh SE 11.0 mph17.7 kmh 29.90 in1012.5 mb 0.00 in0.0 mm 0.00 in0.0 mm 0.00 in0.0 mm
07:38 AM 77.4°F25.2°C 70.8°F21.6°C 80% 2.0 mph S3.2 kmh S 11.0 mph17.7 kmh 29.90 in1012.5 mb 0.00 in0.0 mm 0.00 in0.0 mm 0.00 in0.0 mm
07:40 AM 77.4°F25.2°C 70.8°F21.6°C 80% 8.0 mph SSE12.9 kmh SSE 11.0 mph17.7 kmh 29.90 in1012.5 mb 0.00 in0.0 mm 0.00 in0.0 mm 0.00 in0.0 mm
07:41 AM 77.4°F25.2°C 70.8°F21.6°C 80% 2.0 mph SE3.2 kmh SE 11.0 mph17.7 kmh 29.90 in1012.5 mb 0.00 in0.0 mm 0.00 in0.0 mm 0.00 in0.0 mm
07:44 AM 77.4°F25.2°C 70.8°F21.6°C 80% 4.0 mph SE6.4 kmh SE 11.0 mph17.7 kmh 29.90 in1012.5 mb 0.00 in0.0 mm 0.00 in0.0 mm 0.00 in0.0 mm
07:46 AM 77.4°F25.2°C 70.8°F21.6°C 80% 3.0 mph S4.8 kmh S 14.0 mph22.5 kmh 29.90 in1012.5 mb 0.00 in0.0 mm 0.00 in0.0 mm 0.00 in0.0 mm
07:48 AM 77.4°F25.2°C 70.8°F21.6°C 80% 8.0 mph S12.9 kmh S 14.0 mph22.5 kmh 29.90 in1012.5 mb 0.00 in0.0 mm 0.00 in0.0 mm 0.00 in0.0 mm
07:50 AM 77.4°F25.2°C 70.8°F21.6°C 80% 5.0 mph S8.0 kmh S 14.0 mph22.5 kmh 29.91 in1012.9 mb 0.00 in0.0 mm 0.00 in0.0 mm 0.00 in0.0 mm
07:52 AM 77.4°F25.2°C 70.8°F21.6°C 80% 12.0 mph S19.3 kmh S 15.0 mph24.1 kmh 29.90 in1012.5 mb 0.00 in0.0 mm 0.00 in0.0 mm 0.00 in0.0 mm
07:54 AM 77.4°F25.2°C 70.8°F21.6°C 80% 11.0 mph S17.7 kmh S 15.0 mph24.1 kmh 29.91 in1012.9 mb 0.00 in0.0 mm 0.00 in0.0 mm 0.00 in0.0 mm
07:56 AM 77.5°F25.3°C 70.9°F21.6°C 80% 5.0 mph SE8.0 kmh SE 15.0 mph24.1 kmh 29.90 in1012.5 mb 0.00 in0.0 mm 0.00 in0.0 mm 0.00 in0.0 mm
07:58 AM 77.6°F25.3°C 71.0°F21.7°C 80% 5.0 mph S8.0 kmh S 15.0 mph24.1 kmh 29.91 in1012.9 mb 0.00 in0.0 mm 0.00 in0.0 mm 0.00 in0.0 mm
08:00 AM 77.6°F25.3°C 71.0°F21.7°C 80% 9.0 mph ESE14.5 kmh ESE 15.0 mph24.1 kmh 29.90 in1012.5 mb 0.00 in0.0 mm 0.00 in0.0 mm 0.00 in0.0 mm
08:02 AM 77.7°F25.4°C 71.0°F21.7°C 80% 5.0 mph S8.0 kmh S 10.0 mph16.1 kmh 29.90 in1012.5 mb 0.00 in0.0 mm 0.00 in0.0 mm 0.00 in0.0 mm
08:04 AM 77.7°F25.4°C 71.0°F21.7°C 80% 6.0 mph SSE9.7 kmh SSE 10.0 mph16.1 kmh 29.90 in1012.5 mb 0.00 in0.0 mm 0.00 in0.0 mm 0.00 in0.0 mm
08:06 AM 77.9°F25.5°C 71.2°F21.8°C 80% 4.0 mph SSE6.4 kmh SSE 10.0 mph16.1 kmh 29.90 in1012.5 mb 0.00 in0.0 mm 0.00 in0.0 mm 0.00 in0.0 mm
08:08 AM 77.9°F25.5°C 70.9°F21.6°C 79% 8.0 mph S12.9 kmh S 10.0 mph16.1 kmh 29.90 in1012.5 mb 0.00 in0.0 mm 0.00 in0.0 mm 0.00 in0.0 mm
08:10 AM 77.9°F25.5°C 70.9°F21.6°C 79% 8.0 mph S12.9 kmh S 14.0 mph22.5 kmh 29.90 in1012.5 mb 0.00 in0.0 mm 0.00 in0.0 mm 0.00 in0.0 mm
08:12 AM 78.1°F25.6°C 71.1°F21.7°C 79% 5.0 mph S8.0 kmh S 14.0 mph22.5 kmh 29.90 in1012.5 mb 0.00 in0.0 mm 0.00 in0.0 mm 0.00 in0.0 mm
08:14 AM 78.1°F25.6°C 70.7°F21.5°C 78% 12.0 mph S19.3 kmh S 18.0 mph29.0 kmh 29.90 in1012.5 mb 0.00 in0.0 mm 0.00 in0.0 mm 0.00 in0.0 mm
08:16 AM 78.1°F25.6°C 70.7°F21.5°C 78% 5.0 mph SW8.0 kmh SW 18.0 mph29.0 kmh 29.90 in1012.5 mb 0.00 in0.0 mm 0.00 in0.0 mm 0.00 in0.0 mm
08:18 AM 78.2°F25.7°C 70.8°F21.6°C 78% 6.0 mph S9.7 kmh S 18.0 mph29.0 kmh 29.90 in1012.5 mb 0.00 in0.0 mm 0.00 in0.0 mm 0.00 in0.0 mm
08:20 AM 78.3°F25.7°C 70.9°F21.6°C 78% 13.0 mph SE20.9 kmh SE 18.0 mph29.0 kmh 29.91 in1012.9 mb 0.00 in0.0 mm 0.00 in0.0 mm 0.00 in0.0 mm
08:22 AM 78.3°F25.7°C 70.9°F21.6°C 78% 4.0 mph SSE6.4 kmh SSE 18.0 mph29.0 kmh 29.90 in1012.5 mb 0.00 in0.0 mm 0.00 in0.0 mm 0.00 in0.0 mm
08:24 AM 78.3°F25.7°C 70.9°F21.6°C 78% 3.0 mph SE4.8 kmh SE 18.0 mph29.0 kmh 29.91 in1012.9 mb 0.00 in0.0 mm 0.00 in0.0 mm 0.00 in0.0 mm
08:26 AM 78.4°F25.8°C 71.0°F21.7°C 78% 5.0 mph S8.0 kmh S 18.0 mph29.0 kmh 29.90 in1012.5 mb 0.00 in0.0 mm 0.00 in0.0 mm 0.00 in0.0 mm
08:28 AM 78.4°F25.8°C 71.0°F21.7°C 78% 5.0 mph S8.0 kmh S 18.0 mph29.0 kmh 29.91 in1012.9 mb 0.00 in0.0 mm 0.00 in0.0 mm 0.00 in0.0 mm
08:30 AM 78.5°F25.8°C 70.7°F21.5°C 77% 5.0 mph SSW8.0 kmh SSW 18.0 mph29.0 kmh 29.91 in1012.9 mb 0.00 in0.0 mm 0.00 in0.0 mm 0.00 in0.0 mm
08:32 AM 78.5°F25.8°C 70.7°F21.5°C 77% 12.0 mph SSE19.3 kmh SSE 12.0 mph19.3 kmh 29.91 in1012.9 mb 0.00 in0.0 mm 0.00 in0.0 mm 0.00 in0.0 mm
08:34 AM 78.5°F25.8°C 70.7°F21.5°C 77% 9.0 mph SSW14.5 kmh SSW 12.0 mph19.3 kmh 29.91 in1012.9 mb 0.00 in0.0 mm 0.00 in0.0 mm 0.00 in0.0 mm
08:36 AM 78.4°F25.8°C 70.6°F21.4°C 77% 6.0 mph S9.7 kmh S 20.0 mph32.2 kmh 29.91 in1012.9 mb 0.00 in0.0 mm 0.00 in0.0 mm 0.00 in0.0 mm
08:38 AM 78.5°F25.8°C 70.7°F21.5°C 77% 4.0 mph S6.4 kmh S 20.0 mph32.2 kmh 29.91 in1012.9 mb 0.00 in0.0 mm 0.00 in0.0 mm 0.00 in0.0 mm
08:40 AM 78.6°F25.9°C 70.8°F21.6°C 77% 6.0 mph S9.7 kmh S 20.0 mph32.2 kmh 29.91 in1012.9 mb 0.00 in0.0 mm 0.00 in0.0 mm 0.00 in0.0 mm
08:42 AM 78.7°F25.9°C 70.9°F21.6°C 77% 13.0 mph S20.9 kmh S 20.0 mph32.2 kmh 29.91 in1012.9 mb 0.00 in0.0 mm 0.00 in0.0 mm 0.00 in0.0 mm
08:44 AM 78.9°F26.1°C 70.7°F21.5°C 76% 10.0 mph S16.1 kmh S 20.0 mph32.2 kmh 29.91 in1012.9 mb 0.00 in0.0 mm 0.00 in0.0 mm 0.00 in0.0 mm
08:46 AM 78.9°F26.1°C 70.3°F21.3°C 75% 8.0 mph SW12.9 kmh SW 20.0 mph32.2 kmh 29.91 in1012.9 mb 0.00 in0.0 mm 0.00 in0.0 mm 0.00 in0.0 mm
08:48 AM 79.0°F26.1°C 70.4°F21.3°C 75% 7.0 mph S11.3 kmh S 20.0 mph32.2 kmh 29.91 in1012.9 mb 0.00 in0.0 mm 0.00 in0.0 mm 0.00 in0.0 mm
08:50 AM 79.0°F26.1°C 70.4°F21.3°C 75% 11.0 mph SSE17.7 kmh SSE 20.0 mph32.2 kmh 29.91 in1012.9 mb 0.00 in0.0 mm 0.00 in0.0 mm 0.00 in0.0 mm
08:52 AM 79.1°F26.2°C 70.5°F21.4°C 75% 6.0 mph SSW9.7 kmh SSW 20.0 mph32.2 kmh 29.91 in1012.9 mb 0.00 in0.0 mm 0.00 in0.0 mm 0.00 in0.0 mm
08:54 AM 79.2°F26.2°C 70.6°F21.4°C 75% 11.0 mph SSE17.7 kmh SSE 20.0 mph32.2 kmh 29.91 in1012.9 mb 0.00 in0.0 mm 0.00 in0.0 mm 0.00 in0.0 mm
08:56 AM 79.3°F26.3°C 70.7°F21.5°C 75% 6.0 mph SSE9.7 kmh SSE 20.0 mph32.2 kmh 29.91 in1012.9 mb 0.00 in0.0 mm 0.00 in0.0 mm 0.00 in0.0 mm
08:58 AM 79.5°F26.4°C 70.9°F21.6°C 75% 9.0 mph SE14.5 kmh SE 20.0 mph32.2 kmh 29.91 in1012.9 mb 0.00 in0.0 mm 0.00 in0.0 mm 0.00 in0.0 mm
09:00 AM 79.7°F26.5°C 71.1°F21.7°C 75% 8.0 mph S12.9 kmh S 20.0 mph32.2 kmh 29.91 in1012.9 mb 0.00 in0.0 mm 0.00 in0.0 mm 0.00 in0.0 mm
09:02 AM 79.8°F26.6°C 70.8°F21.6°C 74% 8.0 mph S12.9 kmh S 11.0 mph17.7 kmh 29.91 in1012.9 mb 0.00 in0.0 mm 0.00 in0.0 mm 0.00 in0.0 mm
09:04 AM 79.9°F26.6°C 70.9°F21.6°C 74% 7.0 mph SSE11.3 kmh SSE 15.0 mph24.1 kmh 29.91 in1012.9 mb 0.00 in0.0 mm 0.00 in0.0 mm 0.00 in0.0 mm
09:06 AM 79.9°F26.6°C 70.9°F21.6°C 74% 7.0 mph SSE11.3 kmh SSE 15.0 mph24.1 kmh 29.91 in1012.9 mb 0.00 in0.0 mm 0.00 in0.0 mm 0.00 in0.0 mm
09:08 AM 80.0°F26.7°C 71.0°F21.7°C 74% 5.0 mph SE8.0 kmh SE 15.0 mph24.1 kmh 29.91 in1012.9 mb 0.00 in0.0 mm 0.00 in0.0 mm 0.00 in0.0 mm
09:10 AM 80.1°F26.7°C 70.7°F21.5°C 73% 7.0 mph SE11.3 kmh SE 15.0 mph24.1 kmh 29.92 in1013.2 mb 0.00 in0.0 mm 0.00 in0.0 mm 0.00 in0.0 mm
09:12 AM 80.0°F26.7°C 70.6°F21.4°C 73% 7.0 mph S11.3 kmh S 15.0 mph24.1 kmh 29.92 in1013.2 mb 0.00 in0.0 mm 0.00 in0.0 mm 0.00 in0.0 mm
09:14 AM 80.1°F26.7°C 70.7°F21.5°C 73% 3.0 mph ESE4.8 kmh ESE 15.0 mph24.1 kmh 29.92 in1013.2 mb 0.00 in0.0 mm 0.00 in0.0 mm 0.00 in0.0 mm
09:16 AM 80.3°F26.8°C 70.9°F21.6°C 73% 6.0 mph S9.7 kmh S 18.0 mph29.0 kmh 29.91 in1012.9 mb 0.00 in0.0 mm 0.00 in0.0 mm 0.00 in0.0 mm
09:18 AM 80.5°F26.9°C 71.1°F21.7°C 73% 9.0 mph S14.5 kmh S 18.0 mph29.0 kmh 29.91 in1012.9 mb 0.00 in0.0 mm 0.00 in0.0 mm 0.00 in0.0 mm
09:20 AM 80.8°F27.1°C 70.9°F21.6°C 72% 11.0 mph SSE17.7 kmh SSE 18.0 mph29.0 kmh 29.91 in1012.9 mb 0.00 in0.0 mm 0.00 in0.0 mm 0.00 in0.0 mm
09:22 AM 80.9°F27.2°C 70.6°F21.4°C 71% 16.0 mph S25.7 kmh S 18.0 mph29.0 kmh 29.92 in1013.2 mb 0.00 in0.0 mm 0.00 in0.0 mm 0.00 in0.0 mm
09:24 AM 80.9°F27.2°C 70.6°F21.4°C 71% 9.0 mph S14.5 kmh S 18.0 mph29.0 kmh 29.92 in1013.2 mb 0.00 in0.0 mm 0.00 in0.0 mm 0.00 in0.0 mm
09:26 AM 80.6°F27.0°C 70.3°F21.3°C 71% 7.0 mph S11.3 kmh S 18.0 mph29.0 kmh 29.92 in1013.2 mb 0.00 in0.0 mm 0.00 in0.0 mm 0.00 in0.0 mm
09:28 AM 80.4°F26.9°C 70.1°F21.2°C 71% 11.0 mph S17.7 kmh S 19.0 mph30.6 kmh 29.92 in1013.2 mb 0.00 in0.0 mm 0.00 in0.0 mm 0.00 in0.0 mm
09:30 AM 80.3°F26.8°C 70.1°F21.2°C 71% 10.0 mph SSE16.1 kmh SSE 19.0 mph30.6 kmh 29.92 in1013.2 mb 0.00 in0.0 mm 0.00 in0.0 mm 0.00 in0.0 mm
09:32 AM 80.4°F26.9°C 70.1°F21.2°C 71% 10.0 mph SSE16.1 kmh SSE 12.0 mph19.3 kmh 29.92 in1013.2 mb 0.00 in0.0 mm 0.00 in0.0 mm 0.00 in0.0 mm
09:34 AM 80.4°F26.9°C 70.1°F21.2°C 71% 7.0 mph SE11.3 kmh SE 14.0 mph22.5 kmh 29.92 in1013.2 mb 0.00 in0.0 mm 0.00 in0.0 mm 0.00 in0.0 mm
09:36 AM 80.4°F26.9°C 70.1°F21.2°C 71% 8.0 mph S12.9 kmh S 17.0 mph27.4 kmh 29.92 in1013.2 mb 0.00 in0.0 mm 0.00 in0.0 mm 0.00 in0.0 mm
09:38 AM 80.4°F26.9°C 70.1°F21.2°C 71% 9.0 mph S14.5 kmh S 17.0 mph27.4 kmh 29.92 in1013.2 mb 0.00 in0.0 mm 0.00 in0.0 mm 0.00 in0.0 mm
09:40 AM 80.8°F27.1°C 70.1°F21.2°C 70% 7.0 mph SSW11.3 kmh SSW 17.0 mph27.4 kmh 29.92 in1013.2 mb 0.00 in0.0 mm 0.00 in0.0 mm 0.00 in0.0 mm
09:42 AM 81.1°F27.3°C 70.4°F21.3°C 70% 9.0 mph SSW14.5 kmh SSW 17.0 mph27.4 kmh 29.92 in1013.2 mb 0.00 in0.0 mm 0.00 in0.0 mm 0.00 in0.0 mm
09:44 AM 81.5°F27.5°C 70.8°F21.6°C 70% 10.0 mph S16.1 kmh S 18.0 mph29.0 kmh 29.92 in1013.2 mb 0.00 in0.0 mm 0.00 in0.0 mm 0.00 in0.0 mm
09:46 AM 81.8°F27.7°C 70.2°F21.2°C 68% 13.0 mph SSE20.9 kmh SSE 18.0 mph29.0 kmh 29.92 in1013.2 mb 0.00 in0.0 mm 0.00 in0.0 mm 0.00 in0.0 mm
09:48 AM 82.0°F27.8°C 70.4°F21.3°C 68% 7.0 mph SSE11.3 kmh SSE 18.0 mph29.0 kmh 29.92 in1013.2 mb 0.00 in0.0 mm 0.00 in0.0 mm 0.00 in0.0 mm
09:50 AM 82.1°F27.8°C 70.1°F21.2°C 67% 6.0 mph SSW9.7 kmh SSW 18.0 mph29.0 kmh 29.92 in1013.2 mb 0.00 in0.0 mm 0.00 in0.0 mm 0.00 in0.0 mm
09:52 AM 82.2°F27.9°C 70.2°F21.2°C 67% 6.0 mph S9.7 kmh S 18.0 mph29.0 kmh 29.92 in1013.2 mb 0.00 in0.0 mm 0.00 in0.0 mm 0.00 in0.0 mm
09:54 AM 82.5°F28.1°C 70.5°F21.4°C 67% 8.0 mph SE12.9 kmh SE 18.0 mph29.0 kmh 29.92 in1013.2 mb 0.00 in0.0 mm 0.00 in0.0 mm 0.00 in0.0 mm
09:56 AM 82.6°F28.1°C 70.1°F21.2°C 66% 6.0 mph SW9.7 kmh SW 18.0 mph29.0 kmh 29.92 in1013.2 mb 0.00 in0.0 mm 0.00 in0.0 mm 0.00 in0.0 mm
09:58 AM 82.8°F28.2°C 70.3°F21.3°C 66% 10.0 mph SW16.1 kmh SW 18.0 mph29.0 kmh 29.92 in1013.2 mb 0.00 in0.0 mm 0.00 in0.0 mm 0.00 in0.0 mm
10:00 AM 83.0°F28.3°C 70.5°F21.4°C 66% 10.0 mph SW16.1 kmh SW 18.0 mph29.0 kmh 29.91 in1012.9 mb 0.00 in0.0 mm 0.00 in0.0 mm 0.00 in0.0 mm
10:02 AM 82.8°F28.2°C 69.8°F21.0°C 65% 9.0 mph S14.5 kmh S 13.0 mph20.9 kmh 29.92 in1013.2 mb 0.00 in0.0 mm 0.00 in0.0 mm 0.00 in0.0 mm
10:04 AM 82.5°F28.1°C 70.0°F21.1°C 66% 12.0 mph S19.3 kmh S 15.0 mph24.1 kmh 29.92 in1013.2 mb 0.00 in0.0 mm 0.00 in0.0 mm 0.00 in0.0 mm
10:06 AM 82.4°F28.0°C 69.5°F20.8°C 65% 8.0 mph S12.9 kmh S 16.0 mph25.7 kmh 29.92 in1013.2 mb 0.00 in0.0 mm 0.00 in0.0 mm 0.00 in0.0 mm
10:08 AM 82.3°F27.9°C 69.4°F20.8°C 65% 8.0 mph S12.9 kmh S 16.0 mph25.7 kmh 29.92 in1013.2 mb 0.00 in0.0 mm 0.00 in0.0 mm 0.00 in0.0 mm
10:10 AM 82.3°F27.9°C 69.4°F20.8°C 65% 4.0 mph SW6.4 kmh SW 16.0 mph25.7 kmh 29.92 in1013.2 mb 0.00 in0.0 mm 0.00 in0.0 mm 0.00 in0.0 mm
10:12 AM 82.3°F27.9°C 69.8°F21.0°C 66% 11.0 mph SW17.7 kmh SW 16.0 mph25.7 kmh 29.92 in1013.2 mb 0.00 in0.0 mm 0.00 in0.0 mm 0.00 in0.0 mm
10:14 AM 82.2°F27.9°C 69.7°F20.9°C 66% 11.0 mph SSE17.7 kmh SSE 16.0 mph25.7 kmh 29.92 in1013.2 mb 0.00 in0.0 mm 0.00 in0.0 mm 0.00 in0.0 mm
10:16 AM 82.2°F27.9°C 69.7°F20.9°C 66% 11.0 mph SSW17.7 kmh SSW 16.0 mph25.7 kmh 29.91 in1012.9 mb 0.00 in0.0 mm 0.00 in0.0 mm 0.00 in0.0 mm
10:18 AM 82.3°F27.9°C 69.4°F20.8°C 65% 10.0 mph S16.1 kmh S 16.0 mph25.7 kmh 29.92 in1013.2 mb 0.00 in0.0 mm 0.00 in0.0 mm 0.00 in0.0 mm
10:20 AM 82.5°F28.1°C 69.6°F20.9°C 65% 13.0 mph S20.9 kmh S 16.0 mph25.7 kmh 29.92 in1013.2 mb 0.00 in0.0 mm 0.00 in0.0 mm 0.00 in0.0 mm
10:22 AM 82.8°F28.2°C 69.4°F20.8°C 64% 3.0 mph S4.8 kmh S 16.0 mph25.7 kmh 29.91 in1012.9 mb 0.00 in0.0 mm 0.00 in0.0 mm 0.00 in0.0 mm
10:24 AM 83.0°F28.3°C 69.1°F20.6°C 63% 15.0 mph SE24.1 kmh SE 19.0 mph30.6 kmh 29.91 in1012.9 mb 0.00 in0.0 mm 0.00 in0.0 mm 0.00 in0.0 mm
10:26 AM 83.3°F28.5°C 69.4°F20.8°C 63% 13.0 mph SSE20.9 kmh SSE 19.0 mph30.6 kmh 29.91 in1012.9 mb 0.00 in0.0 mm 0.00 in0.0 mm 0.00 in0.0 mm
10:28 AM 83.4°F28.6°C 69.0°F20.6°C 62% 5.0 mph S8.0 kmh S 19.0 mph30.6 kmh 29.92 in1013.2 mb 0.00 in0.0 mm 0.00 in0.0 mm 0.00 in0.0 mm
10:30 AM 83.3°F28.5°C 68.9°F20.5°C 62% 9.0 mph WSW14.5 kmh WSW 19.0 mph30.6 kmh 29.91 in1012.9 mb 0.00 in0.0 mm 0.00 in0.0 mm 0.00 in0.0 mm
10:32 AM 83.3°F28.5°C 68.9°F20.5°C 62% 10.0 mph S16.1 kmh S 10.0 mph16.1 kmh 29.91 in1012.9 mb 0.00 in0.0 mm 0.00 in0.0 mm 0.00 in0.0 mm
10:34 AM 83.6°F28.7°C 69.2°F20.7°C 62% 4.0 mph S6.4 kmh S 11.0 mph17.7 kmh 29.91 in1012.9 mb 0.00 in0.0 mm 0.00 in0.0 mm 0.00 in0.0 mm
10:36 AM 84.0°F28.9°C 69.1°F20.6°C 61% 8.0 mph S12.9 kmh S 12.0 mph19.3 kmh 29.91 in1012.9 mb 0.00 in0.0 mm 0.00 in0.0 mm 0.00 in0.0 mm
10:38 AM 84.4°F29.1°C 69.5°F20.8°C 61% 5.0 mph SE8.0 kmh SE 18.0 mph29.0 kmh 29.91 in1012.9 mb 0.00 in0.0 mm 0.00 in0.0 mm 0.00 in0.0 mm
10:40 AM 84.6°F29.2°C 69.7°F20.9°C 61% 11.0 mph SE17.7 kmh SE 18.0 mph29.0 kmh 29.91 in1012.9 mb 0.00 in0.0 mm 0.00 in0.0 mm 0.00 in0.0 mm
10:42 AM 84.8°F29.3°C 69.4°F20.8°C 60% 6.0 mph SW9.7 kmh SW 18.0 mph29.0 kmh 29.91 in1012.9 mb 0.00 in0.0 mm 0.00 in0.0 mm 0.00 in0.0 mm
10:44 AM 84.7°F29.3°C 69.3°F20.7°C 60% 12.0 mph SSW19.3 kmh SSW 18.0 mph29.0 kmh 29.91 in1012.9 mb 0.00 in0.0 mm 0.00 in0.0 mm 0.00 in0.0 mm
10:46 AM 84.7°F29.3°C 69.3°F20.7°C 60% 5.0 mph SW8.0 kmh SW 18.0 mph29.0 kmh 29.91 in1012.9 mb 0.00 in0.0 mm 0.00 in0.0 mm 0.00 in0.0 mm
10:48 AM 84.7°F29.3°C 69.3°F20.7°C 60% 9.0 mph SSW14.5 kmh SSW 18.0 mph29.0 kmh 29.91 in1012.9 mb 0.00 in0.0 mm 0.00 in0.0 mm 0.00 in0.0 mm
10:50 AM 84.9°F29.4°C 69.5°F20.8°C 60% 8.0 mph SSE12.9 kmh SSE 18.0 mph29.0 kmh 29.91 in1012.9 mb 0.00 in0.0 mm 0.00 in0.0 mm 0.00 in0.0 mm
10:52 AM 85.1°F29.5°C 69.2°F20.7°C 59% 10.0 mph S16.1 kmh S 18.0 mph29.0 kmh 29.91 in1012.9 mb 0.00 in0.0 mm 0.00 in0.0 mm 0.00 in0.0 mm
10:54 AM 85.1°F29.5°C 69.2°F20.7°C 59% 10.0 mph SW16.1 kmh SW 21.0 mph33.8 kmh 29.91 in1012.9 mb 0.00 in0.0 mm 0.00 in0.0 mm 0.00 in0.0 mm
10:56 AM 85.2°F29.6°C 69.3°F20.7°C 59% 13.0 mph SSW20.9 kmh SSW 21.0 mph33.8 kmh 29.91 in1012.9 mb 0.00 in0.0 mm 0.00 in0.0 mm 0.00 in0.0 mm
10:58 AM 85.3°F29.6°C 68.9°F20.5°C 58% 7.0 mph SSE11.3 kmh SSE 21.0 mph33.8 kmh 29.91 in1012.9 mb 0.00 in0.0 mm 0.00 in0.0 mm 0.00 in0.0 mm
11:00 AM 85.5°F29.7°C 69.1°F20.6°C 58% 14.0 mph S22.5 kmh S 21.0 mph33.8 kmh 29.91 in1012.9 mb 0.00 in0.0 mm 0.00 in0.0 mm 0.00 in0.0 mm
11:02 AM 85.5°F29.7°C 69.1°F20.6°C 58% 11.0 mph S17.7 kmh S 13.0 mph20.9 kmh 29.90 in1012.5 mb 0.00 in0.0 mm 0.00 in0.0 mm 0.00 in0.0 mm
11:04 AM 85.4°F29.7°C 69.0°F20.6°C 58% 12.0 mph SSW19.3 kmh SSW 19.0 mph30.6 kmh 29.90 in1012.5 mb 0.00 in0.0 mm 0.00 in0.0 mm 0.00 in0.0 mm
11:06 AM 85.4°F29.7°C 69.0°F20.6°C 58% 9.0 mph S14.5 kmh S 19.0 mph30.6 kmh 29.91 in1012.9 mb 0.00 in0.0 mm 0.00 in0.0 mm 0.00 in0.0 mm
11:08 AM 85.6°F29.8°C 69.1°F20.6°C 58% 5.0 mph SSE8.0 kmh SSE 19.0 mph30.6 kmh 29.90 in1012.5 mb 0.00 in0.0 mm 0.00 in0.0 mm 0.00 in0.0 mm
11:10 AM 85.8°F29.9°C 68.8°F20.4°C 57% 11.0 mph SW17.7 kmh SW 19.0 mph30.6 kmh 29.91 in1012.9 mb 0.00 in0.0 mm 0.00 in0.0 mm 0.00 in0.0 mm
11:12 AM 86.0°F30.0°C 68.5°F20.3°C 56% 16.0 mph S25.7 kmh S 19.0 mph30.6 kmh 29.91 in1012.9 mb 0.00 in0.0 mm 0.00 in0.0 mm 0.00 in0.0 mm
11:14 AM 86.0°F30.0°C 68.5°F20.3°C 56% 6.0 mph S9.7 kmh S 19.0 mph30.6 kmh 29.91 in1012.9 mb 0.00 in0.0 mm 0.00 in0.0 mm 0.00 in0.0 mm
11:16 AM 86.0°F30.0°C 68.5°F20.3°C 56% 9.0 mph SSW14.5 kmh SSW 19.0 mph30.6 kmh 29.91 in1012.9 mb 0.00 in0.0 mm 0.00 in0.0 mm 0.00 in0.0 mm
11:18 AM 86.0°F30.0°C 68.5°F20.3°C 56% 13.0 mph S20.9 kmh S 19.0 mph30.6 kmh 29.90 in1012.5 mb 0.00 in0.0 mm 0.00 in0.0 mm 0.00 in0.0 mm
11:20 AM 86.1°F30.1°C 68.6°F20.3°C 56% 10.0 mph S16.1 kmh S 19.0 mph30.6 kmh 29.90 in1012.5 mb 0.00 in0.0 mm 0.00 in0.0 mm 0.00 in0.0 mm
11:22 AM 86.3°F30.2°C 68.8°F20.4°C 56% 8.0 mph SW12.9 kmh SW 19.0 mph30.6 kmh 29.90 in1012.5 mb 0.00 in0.0 mm 0.00 in0.0 mm 0.00 in0.0 mm
11:24 AM 86.6°F30.3°C 69.1°F20.6°C 56% 6.0 mph S9.7 kmh S 19.0 mph30.6 kmh 29.90 in1012.5 mb 0.00 in0.0 mm 0.00 in0.0 mm 0.00 in0.0 mm
11:26 AM 86.9°F30.5°C 68.8°F20.4°C 55% 11.0 mph ESE17.7 kmh ESE 19.0 mph30.6 kmh 29.90 in1012.5 mb 0.00 in0.0 mm 0.00 in0.0 mm 0.00 in0.0 mm
11:28 AM 87.0°F30.6°C 67.8°F19.9°C 53% 5.0 mph SE8.0 kmh SE 19.0 mph30.6 kmh 29.90 in1012.5 mb 0.00 in0.0 mm 0.00 in0.0 mm 0.00 in0.0 mm
11:30 AM 87.0°F30.6°C 68.4°F20.2°C 54% 10.0 mph S16.1 kmh S 19.0 mph30.6 kmh 29.90 in1012.5 mb 0.00 in0.0 mm 0.00 in0.0 mm 0.00 in0.0 mm
11:32 AM 87.3°F30.7°C 68.6°F20.3°C 54% 4.0 mph S6.4 kmh S 4.0 mph6.4 kmh 29.90 in1012.5 mb 0.00 in0.0 mm 0.00 in0.0 mm 0.00 in0.0 mm
11:34 AM 87.4°F30.8°C 68.7°F20.4°C 54% 10.0 mph S16.1 kmh S 11.0 mph17.7 kmh 29.90 in1012.5 mb 0.00 in0.0 mm 0.00 in0.0 mm 0.00 in0.0 mm
11:36 AM 87.2°F30.7°C 68.5°F20.3°C 54% 9.0 mph SSW14.5 kmh SSW 15.0 mph24.1 kmh 29.89 in1012.2 mb 0.00 in0.0 mm 0.00 in0.0 mm 0.00 in0.0 mm
11:38 AM 87.1°F30.6°C 68.5°F20.3°C 54% 3.0 mph S4.8 kmh S 15.0 mph24.1 kmh 29.89 in1012.2 mb 0.00 in0.0 mm 0.00 in0.0 mm 0.00 in0.0 mm
11:40 AM 87.3°F30.7°C 68.1°F20.1°C 53% 11.0 mph S17.7 kmh S 15.0 mph24.1 kmh 29.89 in1012.2 mb 0.00 in0.0 mm 0.00 in0.0 mm 0.00 in0.0 mm
11:42 AM 87.5°F30.8°C 68.3°F20.2°C 53% 7.0 mph S11.3 kmh S 15.0 mph24.1 kmh 29.89 in1012.2 mb 0.00 in0.0 mm 0.00 in0.0 mm 0.00 in0.0 mm
11:44 AM 87.5°F30.8°C 68.3°F20.2°C 53% 10.0 mph SSE16.1 kmh SSE 15.0 mph24.1 kmh 29.89 in1012.2 mb 0.00 in0.0 mm 0.00 in0.0 mm 0.00 in0.0 mm
11:46 AM 87.6°F30.9°C 67.8°F19.9°C 52% 11.0 mph SSE17.7 kmh SSE 20.0 mph32.2 kmh 29.89 in1012.2 mb 0.00 in0.0 mm 0.00 in0.0 mm 0.00 in0.0 mm
11:48 AM 87.5°F30.8°C 68.3°F20.2°C 53% 11.0 mph SW17.7 kmh SW 20.0 mph32.2 kmh 29.89 in1012.2 mb 0.00 in0.0 mm 0.00 in0.0 mm 0.00 in0.0 mm
11:50 AM 87.7°F30.9°C 68.5°F20.3°C 53% 9.0 mph SSW14.5 kmh SSW 20.0 mph32.2 kmh 29.89 in1012.2 mb 0.00 in0.0 mm 0.00 in0.0 mm 0.00 in0.0 mm
11:52 AM 87.7°F30.9°C 67.9°F19.9°C 52% 7.0 mph SSW11.3 kmh SSW 20.0 mph32.2 kmh 29.89 in1012.2 mb 0.00 in0.0 mm 0.00 in0.0 mm 0.00 in0.0 mm
11:54 AM 87.8°F31.0°C 68.0°F20.0°C 52% 6.0 mph S9.7 kmh S 20.0 mph32.2 kmh 29.89 in1012.2 mb 0.00 in0.0 mm 0.00 in0.0 mm 0.00 in0.0 mm
11:56 AM 88.0°F31.1°C 68.2°F20.1°C 52% 6.0 mph SSE9.7 kmh SSE 20.0 mph32.2 kmh 29.88 in1011.9 mb 0.00 in0.0 mm 0.00 in0.0 mm 0.00 in0.0 mm
11:58 AM 88.2°F31.2°C 68.4°F20.2°C 52% 7.0 mph S11.3 kmh S 20.0 mph32.2 kmh 29.88 in1011.9 mb 0.00 in0.0 mm 0.00 in0.0 mm 0.00 in0.0 mm
12:00 PM 88.1°F31.2°C 67.7°F19.8°C 51% 14.0 mph S22.5 kmh S 20.0 mph32.2 kmh 29.88 in1011.9 mb 0.00 in0.0 mm 0.00 in0.0 mm 0.00 in0.0 mm
12:02 PM 88.1°F31.2°C 67.7°F19.8°C 51% 11.0 mph SSW17.7 kmh SSW 11.0 mph17.7 kmh 29.88 in1011.9 mb 0.00 in0.0 mm 0.00 in0.0 mm 0.00 in0.0 mm
12:04 PM 88.3°F31.3°C 67.9°F19.9°C 51% 14.0 mph S22.5 kmh S 16.0 mph25.7 kmh 29.88 in1011.9 mb 0.00 in0.0 mm 0.00 in0.0 mm 0.00 in0.0 mm
12:06 PM 88.4°F31.3°C 68.0°F20.0°C 51% 7.0 mph S11.3 kmh S 16.0 mph25.7 kmh 29.88 in1011.9 mb 0.00 in0.0 mm 0.00 in0.0 mm 0.00 in0.0 mm
12:08 PM 88.5°F31.4°C 67.5°F19.7°C 50% 7.0 mph SE11.3 kmh SE 16.0 mph25.7 kmh 29.88 in1011.9 mb 0.00 in0.0 mm 0.00 in0.0 mm 0.00 in0.0 mm
12:10 PM 88.5°F31.4°C 67.5°F19.7°C 50% 7.0 mph S11.3 kmh S 16.0 mph25.7 kmh 29.88 in1011.9 mb 0.00 in0.0 mm 0.00 in0.0 mm 0.00 in0.0 mm
12:12 PM 88.5°F31.4°C 67.5°F19.7°C 50% 10.0 mph S16.1 kmh S 16.0 mph25.7 kmh 29.88 in1011.9 mb 0.00 in0.0 mm 0.00 in0.0 mm 0.00 in0.0 mm
12:14 PM 88.5°F31.4°C 66.9°F19.4°C 49% 3.0 mph S4.8 kmh S 16.0 mph25.7 kmh 29.87 in1011.5 mb 0.00 in0.0 mm 0.00 in0.0 mm 0.00 in0.0 mm
12:16 PM 88.7°F31.5°C 67.7°F19.8°C 50% 4.0 mph SSW6.4 kmh SSW 16.0 mph25.7 kmh 29.87 in1011.5 mb 0.00 in0.0 mm 0.00 in0.0 mm 0.00 in0.0 mm
12:18 PM 89.0°F31.7°C 67.4°F19.7°C 49% 2.0 mph SSE3.2 kmh SSE 16.0 mph25.7 kmh 29.87 in1011.5 mb 0.00 in0.0 mm 0.00 in0.0 mm 0.00 in0.0 mm
12:20 PM 89.5°F31.9°C 67.8°F19.9°C 49% 10.0 mph SSE16.1 kmh SSE 16.0 mph25.7 kmh 29.87 in1011.5 mb 0.00 in0.0 mm 0.00 in0.0 mm 0.00 in0.0 mm
12:22 PM 89.6°F32.0°C 66.7°F19.3°C 47% 6.0 mph S9.7 kmh S 16.0 mph25.7 kmh 29.87 in1011.5 mb 0.00 in0.0 mm 0.00 in0.0 mm 0.00 in0.0 mm
12:24 PM 89.4°F31.9°C 66.5°F19.2°C 47% 9.0 mph S14.5 kmh S 16.0 mph25.7 kmh 29.87 in1011.5 mb 0.00 in0.0 mm 0.00 in0.0 mm 0.00 in0.0 mm
12:26 PM 89.3°F31.8°C 67.1°F19.5°C 48% 4.0 mph SE6.4 kmh SE 16.0 mph25.7 kmh 29.87 in1011.5 mb 0.00 in0.0 mm 0.00 in0.0 mm 0.00 in0.0 mm
12:28 PM 89.6°F32.0°C 66.7°F19.3°C 47% 12.0 mph S19.3 kmh S 16.0 mph25.7 kmh 29.87 in1011.5 mb 0.00 in0.0 mm 0.00 in0.0 mm 0.00 in0.0 mm
12:30 PM 89.8°F32.1°C 66.3°F19.1°C 46% 9.0 mph SSE14.5 kmh SSE 17.0 mph27.4 kmh 29.87 in1011.5 mb 0.00 in0.0 mm 0.00 in0.0 mm 0.00 in0.0 mm
12:32 PM 89.8°F32.1°C 65.6°F18.7°C 45% 10.0 mph SSE16.1 kmh SSE 12.0 mph19.3 kmh 29.87 in1011.5 mb 0.00 in0.0 mm 0.00 in0.0 mm 0.00 in0.0 mm
12:34 PM 89.7°F32.1°C 65.6°F18.7°C 45% 9.0 mph S14.5 kmh S 15.0 mph24.1 kmh 29.87 in1011.5 mb 0.00 in0.0 mm 0.00 in0.0 mm 0.00 in0.0 mm
12:36 PM 89.7°F32.1°C 66.2°F19.0°C 46% 11.0 mph SW17.7 kmh SW 15.0 mph24.1 kmh 29.87 in1011.5 mb 0.00 in0.0 mm 0.00 in0.0 mm 0.00 in0.0 mm
12:38 PM 89.7°F32.1°C 66.2°F19.0°C 46% 7.0 mph S11.3 kmh S 15.0 mph24.1 kmh 29.86 in1011.2 mb 0.00 in0.0 mm 0.00 in0.0 mm 0.00 in0.0 mm
12:40 PM 89.8°F32.1°C 65.6°F18.7°C 45% 5.0 mph S8.0 kmh S 15.0 mph24.1 kmh 29.87 in1011.5 mb 0.00 in0.0 mm 0.00 in0.0 mm 0.00 in0.0 mm
12:42 PM 90.1°F32.3°C 65.3°F18.5°C 44% 7.0 mph S11.3 kmh S 15.0 mph24.1 kmh 29.86 in1011.2 mb 0.00 in0.0 mm 0.00 in0.0 mm 0.00 in0.0 mm
12:44 PM 90.2°F32.3°C 65.4°F18.6°C 44% 11.0 mph S17.7 kmh S 19.0 mph30.6 kmh 29.86 in1011.2 mb 0.00 in0.0 mm 0.00 in0.0 mm 0.00 in0.0 mm
12:46 PM 90.1°F32.3°C 65.3°F18.5°C 44% 9.0 mph S14.5 kmh S 19.0 mph30.6 kmh 29.86 in1011.2 mb 0.00 in0.0 mm 0.00 in0.0 mm 0.00 in0.0 mm
12:48 PM 90.0°F32.2°C 65.2°F18.4°C 44% 5.0 mph SE8.0 kmh SE 19.0 mph30.6 kmh 29.86 in1011.2 mb 0.00 in0.0 mm 0.00 in0.0 mm 0.00 in0.0 mm
12:50 PM 90.2°F32.3°C 65.4°F18.6°C 44% 3.0 mph S4.8 kmh S 19.0 mph30.6 kmh 29.85 in1010.8 mb 0.00 in0.0 mm 0.00 in0.0 mm 0.00 in0.0 mm
12:52 PM 90.5°F32.5°C 63.6°F17.6°C 41% 4.0 mph WSW6.4 kmh WSW 20.0 mph32.2 kmh 29.85 in1010.8 mb 0.00 in0.0 mm 0.00 in0.0 mm 0.00 in0.0 mm
12:54 PM 90.5°F32.5°C 63.6°F17.6°C 41% 7.0 mph SE11.3 kmh SE 20.0 mph32.2 kmh 29.85 in1010.8 mb 0.00 in0.0 mm 0.00 in0.0 mm 0.00 in0.0 mm
12:56 PM 90.5°F32.5°C 64.3°F17.9°C 42% 4.0 mph S6.4 kmh S 20.0 mph32.2 kmh 29.85 in1010.8 mb 0.00 in0.0 mm 0.00 in0.0 mm 0.00 in0.0 mm
12:58 PM 90.7°F32.6°C 63.8°F17.7°C 41% 9.0 mph S14.5 kmh S 20.0 mph32.2 kmh 29.85 in1010.8 mb 0.00 in0.0 mm 0.00 in0.0 mm 0.00 in0.0 mm
01:00 PM 90.7°F32.6°C 63.1°F17.3°C 40% 8.0 mph S12.9 kmh S 20.0 mph32.2 kmh 29.85 in1010.8 mb 0.00 in0.0 mm 0.00 in0.0 mm 0.00 in0.0 mm
01:02 PM 90.8°F32.7°C 63.9°F17.7°C 41% 12.0 mph SW19.3 kmh SW 12.0 mph19.3 kmh 29.85 in1010.8 mb 0.00 in0.0 mm 0.00 in0.0 mm 0.00 in0.0 mm
01:04 PM 90.9°F32.7°C 64.0°F17.8°C 41% 5.0 mph S8.0 kmh S 22.0 mph35.4 kmh 29.85 in1010.8 mb 0.00 in0.0 mm 0.00 in0.0 mm 0.00 in0.0 mm
01:06 PM 91.0°F32.8°C 64.1°F17.8°C 41% 7.0 mph S11.3 kmh S 22.0 mph35.4 kmh 29.84 in1010.5 mb 0.00 in0.0 mm 0.00 in0.0 mm 0.00 in0.0 mm
01:08 PM 91.2°F32.9°C 64.2°F17.9°C 41% 4.0 mph SSW6.4 kmh SSW 22.0 mph35.4 kmh 29.84 in1010.5 mb 0.00 in0.0 mm 0.00 in0.0 mm 0.00 in0.0 mm
01:10 PM 91.4°F33.0°C 64.4°F18.0°C 41% 11.0 mph SSW17.7 kmh SSW 22.0 mph35.4 kmh 29.84 in1010.5 mb 0.00 in0.0 mm 0.00 in0.0 mm 0.00 in0.0 mm
01:12 PM 91.3°F32.9°C 63.6°F17.6°C 40% 14.0 mph S22.5 kmh S 22.0 mph35.4 kmh 29.84 in1010.5 mb 0.00 in0.0 mm 0.00 in0.0 mm 0.00 in0.0 mm
01:14 PM 91.1°F32.8°C 64.1°F17.8°C 41% 13.0 mph S20.9 kmh S 22.0 mph35.4 kmh 29.84 in1010.5 mb 0.00 in0.0 mm 0.00 in0.0 mm 0.00 in0.0 mm
01:16 PM 91.2°F32.9°C 63.5°F17.5°C 40% 12.0 mph SSE19.3 kmh SSE 22.0 mph35.4 kmh 29.84 in1010.5 mb 0.00 in0.0 mm 0.00 in0.0 mm 0.00 in0.0 mm
01:18 PM 91.1°F32.8°C 64.1°F17.8°C 41% 14.0 mph S22.5 kmh S 22.0 mph35.4 kmh 29.83 in1010.2 mb 0.00 in0.0 mm 0.00 in0.0 mm 0.00 in0.0 mm
01:20 PM 91.1°F32.8°C 64.1°F17.8°C 41% 7.0 mph SE11.3 kmh SE 22.0 mph35.4 kmh 29.83 in1010.2 mb 0.00 in0.0 mm 0.00 in0.0 mm 0.00 in0.0 mm
01:22 PM 91.1°F32.8°C 64.1°F17.8°C 41% 7.0 mph S11.3 kmh S 22.0 mph35.4 kmh 29.83 in1010.2 mb 0.00 in0.0 mm 0.00 in0.0 mm 0.00 in0.0 mm
01:24 PM 91.4°F33.0°C 64.4°F18.0°C 41% 4.0 mph SSW6.4 kmh SSW 22.0 mph35.4 kmh 29.83 in1010.2 mb 0.00 in0.0 mm 0.00 in0.0 mm 0.00 in0.0 mm
01:26 PM 91.6°F33.1°C 64.6°F18.1°C 41% 7.0 mph ESE11.3 kmh ESE 22.0 mph35.4 kmh 29.83 in1010.2 mb 0.00 in0.0 mm 0.00 in0.0 mm 0.00 in0.0 mm
01:28 PM 91.7°F33.2°C 64.7°F18.2°C 41% 9.0 mph S14.5 kmh S 22.0 mph35.4 kmh 29.83 in1010.2 mb 0.00 in0.0 mm 0.00 in0.0 mm 0.00 in0.0 mm
01:30 PM 91.7°F33.2°C 64.0°F17.8°C 40% 11.0 mph S17.7 kmh S 22.0 mph35.4 kmh 29.83 in1010.2 mb 0.00 in0.0 mm 0.00 in0.0 mm 0.00 in0.0 mm
01:32 PM 91.5°F33.1°C 63.8°F17.7°C 40% 10.0 mph SSW16.1 kmh SSW 17.0 mph27.4 kmh 29.83 in1010.2 mb 0.00 in0.0 mm 0.00 in0.0 mm 0.00 in0.0 mm
01:34 PM 91.4°F33.0°C 63.7°F17.6°C 40% 7.0 mph S11.3 kmh S 18.0 mph29.0 kmh 29.83 in1010.2 mb 0.00 in0.0 mm 0.00 in0.0 mm 0.00 in0.0 mm
01:36 PM 91.4°F33.0°C 65.1°F18.4°C 42% 4.0 mph SE6.4 kmh SE 18.0 mph29.0 kmh 29.83 in1010.2 mb 0.00 in0.0 mm 0.00 in0.0 mm 0.00 in0.0 mm
01:38 PM 91.7°F33.2°C 64.7°F18.2°C 41% 13.0 mph S20.9 kmh S 18.0 mph29.0 kmh 29.82 in1009.8 mb 0.00 in0.0 mm 0.00 in0.0 mm 0.00 in0.0 mm
01:40 PM 91.8°F33.2°C 64.8°F18.2°C 41% 10.0 mph SE16.1 kmh SE 18.0 mph29.0 kmh 29.82 in1009.8 mb 0.00 in0.0 mm 0.00 in0.0 mm 0.00 in0.0 mm
01:42 PM 92.0°F33.3°C 64.2°F17.9°C 40% 17.0 mph WSW27.4 kmh WSW 19.0 mph30.6 kmh 29.82 in1009.8 mb 0.00 in0.0 mm 0.00 in0.0 mm 0.00 in0.0 mm
01:44 PM 92.0°F33.3°C 64.2°F17.9°C 40% 13.0 mph SSW20.9 kmh SSW 19.0 mph30.6 kmh 29.82 in1009.8 mb 0.00 in0.0 mm 0.00 in0.0 mm 0.00 in0.0 mm
01:46 PM 91.8°F33.2°C 64.1°F17.8°C 40% 10.0 mph SSE16.1 kmh SSE 19.0 mph30.6 kmh 29.82 in1009.8 mb 0.00 in0.0 mm 0.00 in0.0 mm 0.00 in0.0 mm
01:48 PM 91.7°F33.2°C 64.7°F18.2°C 41% 10.0 mph SW16.1 kmh SW 19.0 mph30.6 kmh 29.82 in1009.8 mb 0.00 in0.0 mm 0.00 in0.0 mm 0.00 in0.0 mm
01:50 PM 91.8°F33.2°C 64.1°F17.8°C 40% 13.0 mph SSE20.9 kmh SSE 19.0 mph30.6 kmh 29.82 in1009.8 mb 0.00 in0.0 mm 0.00 in0.0 mm 0.00 in0.0 mm
01:52 PM 92.0°F33.3°C 64.2°F17.9°C 40% 4.0 mph S6.4 kmh S 19.0 mph30.6 kmh 29.82 in1009.8 mb 0.00 in0.0 mm 0.00 in0.0 mm 0.00 in0.0 mm
01:54 PM 92.2°F33.4°C 64.4°F18.0°C 40% 7.0 mph S11.3 kmh S 19.0 mph30.6 kmh 29.82 in1009.8 mb 0.00 in0.0 mm 0.00 in0.0 mm 0.00 in0.0 mm
01:56 PM 92.5°F33.6°C 64.0°F17.8°C 39% 10.0 mph SSW16.1 kmh SSW 19.0 mph30.6 kmh 29.82 in1009.8 mb 0.00 in0.0 mm 0.00 in0.0 mm 0.00 in0.0 mm
01:58 PM 92.4°F33.6°C 64.6°F18.1°C 40% 7.0 mph S11.3 kmh S 19.0 mph30.6 kmh 29.82 in1009.8 mb 0.00 in0.0 mm 0.00 in0.0 mm 0.00 in0.0 mm
02:00 PM 92.4°F33.6°C 64.6°F18.1°C 40% 9.0 mph SSW14.5 kmh SSW 19.0 mph30.6 kmh 29.82 in1009.8 mb 0.00 in0.0 mm 0.00 in0.0 mm 0.00 in0.0 mm
02:02 PM 92.4°F33.6°C 64.6°F18.1°C 40% 17.0 mph S27.4 kmh S 18.0 mph29.0 kmh 29.81 in1009.5 mb 0.00 in0.0 mm 0.00 in0.0 mm 0.00 in0.0 mm
02:04 PM 92.4°F33.6°C 64.6°F18.1°C 40% 8.0 mph S12.9 kmh S 19.0 mph30.6 kmh 29.81 in1009.5 mb 0.00 in0.0 mm 0.00 in0.0 mm 0.00 in0.0 mm
02:06 PM 92.2°F33.4°C 64.4°F18.0°C 40% 12.0 mph SSE19.3 kmh SSE 20.0 mph32.2 kmh 29.81 in1009.5 mb 0.00 in0.0 mm 0.00 in0.0 mm 0.00 in0.0 mm
02:08 PM 92.1°F33.4°C 65.0°F18.3°C 41% 8.0 mph SSE12.9 kmh SSE 20.0 mph32.2 kmh 29.81 in1009.5 mb 0.00 in0.0 mm 0.00 in0.0 mm 0.00 in0.0 mm
02:10 PM 92.2°F33.4°C 65.1°F18.4°C 41% 10.0 mph SE16.1 kmh SE 20.0 mph32.2 kmh 29.81 in1009.5 mb 0.00 in0.0 mm 0.00 in0.0 mm 0.00 in0.0 mm
02:12 PM 92.5°F33.6°C 65.4°F18.6°C 41% 9.0 mph S14.5 kmh S 20.0 mph32.2 kmh 29.80 in1009.1 mb 0.00 in0.0 mm 0.00 in0.0 mm 0.00 in0.0 mm
02:14 PM 92.6°F33.7°C 65.5°F18.6°C 41% 12.0 mph S19.3 kmh S 20.0 mph32.2 kmh 29.80 in1009.1 mb 0.00 in0.0 mm 0.00 in0.0 mm 0.00 in0.0 mm
02:16 PM 92.7°F33.7°C 64.9°F18.3°C 40% 13.0 mph S20.9 kmh S 20.0 mph32.2 kmh 29.80 in1009.1 mb 0.00 in0.0 mm 0.00 in0.0 mm 0.00 in0.0 mm
02:18 PM 92.3°F33.5°C 65.2°F18.4°C 41% 4.0 mph SE6.4 kmh SE 20.0 mph32.2 kmh 29.80 in1009.1 mb 0.00 in0.0 mm 0.00 in0.0 mm 0.00 in0.0 mm
02:20 PM 92.1°F33.4°C 65.7°F18.7°C 42% 4.0 mph S6.4 kmh S 20.0 mph32.2 kmh 29.80 in1009.1 mb 0.00 in0.0 mm 0.00 in0.0 mm 0.00 in0.0 mm
02:22 PM 92.1°F33.4°C 65.7°F18.7°C 42% 5.0 mph S8.0 kmh S 20.0 mph32.2 kmh 29.80 in1009.1 mb 0.00 in0.0 mm 0.00 in0.0 mm 0.00 in0.0 mm
02:24 PM 92.2°F33.4°C 65.8°F18.8°C 42% 8.0 mph S12.9 kmh S 20.0 mph32.2 kmh 29.80 in1009.1 mb 0.00 in0.0 mm 0.00 in0.0 mm 0.00 in0.0 mm
02:26 PM 92.5°F33.6°C 66.1°F18.9°C 42% 12.0 mph S19.3 kmh S 20.0 mph32.2 kmh 29.80 in1009.1 mb 0.00 in0.0 mm 0.00 in0.0 mm 0.00 in0.0 mm
02:28 PM 92.4°F33.6°C 65.3°F18.5°C 41% 9.0 mph SE14.5 kmh SE 20.0 mph32.2 kmh 29.80 in1009.1 mb 0.00 in0.0 mm 0.00 in0.0 mm 0.00 in0.0 mm
02:30 PM 92.3°F33.5°C 65.9°F18.8°C 42% 6.0 mph S9.7 kmh S 20.0 mph32.2 kmh 29.80 in1009.1 mb 0.00 in0.0 mm 0.00 in0.0 mm 0.00 in0.0 mm
02:32 PM 92.5°F33.6°C 65.4°F18.6°C 41% 9.0 mph SSW14.5 kmh SSW 14.0 mph22.5 kmh 29.80 in1009.1 mb 0.00 in0.0 mm 0.00 in0.0 mm 0.00 in0.0 mm
02:34 PM 92.6°F33.7°C 65.5°F18.6°C 41% 6.0 mph SSW9.7 kmh SSW 14.0 mph22.5 kmh 29.80 in1009.1 mb 0.00 in0.0 mm 0.00 in0.0 mm 0.00 in0.0 mm
02:36 PM 92.8°F33.8°C 65.7°F18.7°C 41% 21.0 mph SW33.8 kmh SW 21.0 mph33.8 kmh 29.80 in1009.1 mb 0.00 in0.0 mm 0.00 in0.0 mm 0.00 in0.0 mm
02:38 PM 92.6°F33.7°C 65.5°F18.6°C 41% 8.0 mph SW12.9 kmh SW 21.0 mph33.8 kmh 29.80 in1009.1 mb 0.00 in0.0 mm 0.00 in0.0 mm 0.00 in0.0 mm
02:40 PM 92.5°F33.6°C 66.1°F18.9°C 42% 6.0 mph S9.7 kmh S 21.0 mph33.8 kmh 29.80 in1009.1 mb 0.00 in0.0 mm 0.00 in0.0 mm 0.00 in0.0 mm
02:42 PM 92.5°F33.6°C 65.4°F18.6°C 41% 17.0 mph SE27.4 kmh SE 21.0 mph33.8 kmh 29.80 in1009.1 mb 0.00 in0.0 mm 0.00 in0.0 mm 0.00 in0.0 mm
02:44 PM 92.2°F33.4°C 65.1°F18.4°C 41% 11.0 mph S17.7 kmh S 21.0 mph33.8 kmh 29.80 in1009.1 mb 0.00 in0.0 mm 0.00 in0.0 mm 0.00 in0.0 mm
02:46 PM 92.1°F33.4°C 65.7°F18.7°C 42% 2.0 mph SSE3.2 kmh SSE 21.0 mph33.8 kmh 29.79 in1008.8 mb 0.00 in0.0 mm 0.00 in0.0 mm 0.00 in0.0 mm
02:48 PM 92.3°F33.5°C 65.9°F18.8°C 42% 7.0 mph S11.3 kmh S 21.0 mph33.8 kmh 29.79 in1008.8 mb 0.00 in0.0 mm 0.00 in0.0 mm 0.00 in0.0 mm
02:49 PM 92.6°F33.7°C 66.2°F19.0°C 42% 2.0 mph SSE3.2 kmh SSE 21.0 mph33.8 kmh 29.80 in1009.1 mb 0.00 in0.0 mm 0.00 in0.0 mm 0.00 in0.0 mm
02:52 PM 93.0°F33.9°C 66.5°F19.2°C 42% 2.0 mph S3.2 kmh S 21.0 mph33.8 kmh 29.79 in1008.8 mb 0.00 in0.0 mm 0.00 in0.0 mm 0.00 in0.0 mm
02:54 PM 93.1°F33.9°C 66.6°F19.2°C 42% 5.0 mph S8.0 kmh S 21.0 mph33.8 kmh 29.80 in1009.1 mb 0.00 in0.0 mm 0.00 in0.0 mm 0.00 in0.0 mm
02:56 PM 92.9°F33.8°C 65.8°F18.8°C 41% 5.0 mph S8.0 kmh S 21.0 mph33.8 kmh 29.79 in1008.8 mb 0.00 in0.0 mm 0.00 in0.0 mm 0.00 in0.0 mm
02:58 PM 92.5°F33.6°C 66.1°F18.9°C 42% 6.0 mph SSE9.7 kmh SSE 21.0 mph33.8 kmh 29.79 in1008.8 mb 0.00 in0.0 mm 0.00 in0.0 mm 0.00 in0.0 mm
03:00 PM 92.2°F33.4°C 65.8°F18.8°C 42% 9.0 mph ESE14.5 kmh ESE 21.0 mph33.8 kmh 29.79 in1008.8 mb 0.00 in0.0 mm 0.00 in0.0 mm 0.00 in0.0 mm
03:02 PM 92.1°F33.4°C 65.7°F18.7°C 42% 10.0 mph S16.1 kmh S 14.0 mph22.5 kmh 29.79 in1008.8 mb 0.00 in0.0 mm 0.00 in0.0 mm 0.00 in0.0 mm
03:04 PM 92.3°F33.5°C 65.9°F18.8°C 42% 8.0 mph SSW12.9 kmh SSW 22.0 mph35.4 kmh 29.79 in1008.8 mb 0.00 in0.0 mm 0.00 in0.0 mm 0.00 in0.0 mm
03:06 PM 92.4°F33.6°C 66.0°F18.9°C 42% 16.0 mph SSW25.7 kmh SSW 22.0 mph35.4 kmh 29.79 in1008.8 mb 0.00 in0.0 mm 0.00 in0.0 mm 0.00 in0.0 mm
03:08 PM 92.4°F33.6°C 66.0°F18.9°C 42% 6.0 mph SSE9.7 kmh SSE 22.0 mph35.4 kmh 29.79 in1008.8 mb 0.00 in0.0 mm 0.00 in0.0 mm 0.00 in0.0 mm
03:10 PM 92.5°F33.6°C 66.1°F18.9°C 42% 4.0 mph S6.4 kmh S 22.0 mph35.4 kmh 29.78 in1008.5 mb 0.00 in0.0 mm 0.00 in0.0 mm 0.00 in0.0 mm
04:16 PM 91.6°F33.1°C 63.9°F17.7°C 40% 5.0 mph SW8.0 kmh SW 15.0 mph24.1 kmh 29.77 in1008.1 mb 0.00 in0.0 mm 0.00 in0.0 mm 0.00 in0.0 mm
04:54 PM 92.6°F33.7°C 62.6°F17.0°C 37% 12.0 mph SW19.3 kmh SW 18.0 mph29.0 kmh 29.77 in1008.1 mb 0.00 in0.0 mm 0.00 in0.0 mm 0.00 in0.0 mm
04:56 PM 92.6°F33.7°C 62.6°F17.0°C 37% 6.0 mph S9.7 kmh S 18.0 mph29.0 kmh 29.77 in1008.1 mb 0.00 in0.0 mm 0.00 in0.0 mm 0.00 in0.0 mm
04:58 PM 92.6°F33.7°C 63.3°F17.4°C 38% 12.0 mph SSW19.3 kmh SSW 19.0 mph30.6 kmh 29.77 in1008.1 mb 0.00 in0.0 mm 0.00 in0.0 mm 0.00 in0.0 mm
05:00 PM 92.5°F33.6°C 63.2°F17.3°C 38% 12.0 mph SE19.3 kmh SE 19.0 mph30.6 kmh 29.77 in1008.1 mb 0.00 in0.0 mm 0.00 in0.0 mm 0.00 in0.0 mm
05:02 PM 92.4°F33.6°C 63.1°F17.3°C 38% 7.0 mph S11.3 kmh S 9.0 mph14.5 kmh 29.77 in1008.1 mb 0.00 in0.0 mm 0.00 in0.0 mm 0.00 in0.0 mm
05:04 PM 92.4°F33.6°C 63.1°F17.3°C 38% 11.0 mph SSE17.7 kmh SSE 17.0 mph27.4 kmh 29.77 in1008.1 mb 0.00 in0.0 mm 0.00 in0.0 mm 0.00 in0.0 mm
05:06 PM 92.5°F33.6°C 63.2°F17.3°C 38% 4.0 mph E6.4 kmh E 17.0 mph27.4 kmh 29.77 in1008.1 mb 0.00 in0.0 mm 0.00 in0.0 mm 0.00 in0.0 mm
05:08 PM 92.5°F33.6°C 64.0°F17.8°C 39% 10.0 mph S16.1 kmh S 17.0 mph27.4 kmh 29.78 in1008.5 mb 0.00 in0.0 mm 0.00 in0.0 mm 0.00 in0.0 mm
05:10 PM 92.5°F33.6°C 63.2°F17.3°C 38% 14.0 mph S22.5 kmh S 17.0 mph27.4 kmh 29.77 in1008.1 mb 0.00 in0.0 mm 0.00 in0.0 mm 0.00 in0.0 mm
05:12 PM 92.3°F33.5°C 63.0°F17.2°C 38% 19.0 mph SW30.6 kmh SW 22.0 mph35.4 kmh 29.77 in1008.1 mb 0.00 in0.0 mm 0.00 in0.0 mm 0.00 in0.0 mm
05:14 PM 92.1°F33.4°C 62.9°F17.2°C 38% 4.0 mph S6.4 kmh S 22.0 mph35.4 kmh 29.78 in1008.5 mb 0.00 in0.0 mm 0.00 in0.0 mm 0.00 in0.0 mm
05:16 PM 91.9°F33.3°C 63.4°F17.4°C 39% 10.0 mph S16.1 kmh S 22.0 mph35.4 kmh 29.78 in1008.5 mb 0.00 in0.0 mm 0.00 in0.0 mm 0.00 in0.0 mm
05:18 PM 91.7°F33.2°C 63.3°F17.4°C 39% 8.0 mph SSW12.9 kmh SSW 22.0 mph35.4 kmh 29.78 in1008.5 mb 0.00 in0.0 mm 0.00 in0.0 mm 0.00 in0.0 mm
05:20 PM 91.6°F33.1°C 63.2°F17.3°C 39% 6.0 mph SSW9.7 kmh SSW 22.0 mph35.4 kmh 29.77 in1008.1 mb 0.00 in0.0 mm 0.00 in0.0 mm 0.00 in0.0 mm
05:22 PM 91.6°F33.1°C 63.2°F17.3°C 39% 12.0 mph S19.3 kmh S 22.0 mph35.4 kmh 29.78 in1008.5 mb 0.00 in0.0 mm 0.00 in0.0 mm 0.00 in0.0 mm
05:24 PM 91.5°F33.1°C 63.1°F17.3°C 39% 8.0 mph SSW12.9 kmh SSW 22.0 mph35.4 kmh 29.78 in1008.5 mb 0.00 in0.0 mm 0.00 in0.0 mm 0.00 in0.0 mm
05:26 PM 91.5°F33.1°C 63.1°F17.3°C 39% 10.0 mph SE16.1 kmh SE 22.0 mph35.4 kmh 29.78 in1008.5 mb 0.00 in0.0 mm 0.00 in0.0 mm 0.00 in0.0 mm
05:28 PM 91.5°F33.1°C 63.1°F17.3°C 39% 9.0 mph S14.5 kmh S 22.0 mph35.4 kmh 29.78 in1008.5 mb 0.00 in0.0 mm 0.00 in0.0 mm 0.00 in0.0 mm
05:30 PM 91.5°F33.1°C 63.1°F17.3°C 39% 12.0 mph S19.3 kmh S 22.0 mph35.4 kmh 29.78 in1008.5 mb 0.00 in0.0 mm 0.00 in0.0 mm 0.00 in0.0 mm
05:32 PM 91.5°F33.1°C 63.1°F17.3°C 39% 6.0 mph SSE9.7 kmh SSE 10.0 mph16.1 kmh 29.78 in1008.5 mb 0.00 in0.0 mm 0.00 in0.0 mm 0.00 in0.0 mm
05:34 PM 91.6°F33.1°C 63.2°F17.3°C 39% 5.0 mph SSE8.0 kmh SSE 13.0 mph20.9 kmh 29.78 in1008.5 mb 0.00 in0.0 mm 0.00 in0.0 mm 0.00 in0.0 mm
05:36 PM 91.6°F33.1°C 63.2°F17.3°C 39% 7.0 mph S11.3 kmh S 13.0 mph20.9 kmh 29.78 in1008.5 mb 0.00 in0.0 mm 0.00 in0.0 mm 0.00 in0.0 mm
05:38 PM 91.6°F33.1°C 63.2°F17.3°C 39% 6.0 mph SSE9.7 kmh SSE 13.0 mph20.9 kmh 29.78 in1008.5 mb 0.00 in0.0 mm 0.00 in0.0 mm 0.00 in0.0 mm
05:40 PM 91.6°F33.1°C 63.2°F17.3°C 39% 5.0 mph SW8.0 kmh SW 13.0 mph20.9 kmh 29.78 in1008.5 mb 0.00 in0.0 mm 0.00 in0.0 mm 0.00 in0.0 mm
05:42 PM 91.5°F33.1°C 63.8°F17.7°C 40% 7.0 mph SSW11.3 kmh SSW 13.0 mph20.9 kmh 29.78 in1008.5 mb 0.00 in0.0 mm 0.00 in0.0 mm 0.00 in0.0 mm
05:44 PM 91.4°F33.0°C 63.7°F17.6°C 40% 9.0 mph S14.5 kmh S 20.0 mph32.2 kmh 29.78 in1008.5 mb 0.00 in0.0 mm 0.00 in0.0 mm 0.00 in0.0 mm
05:46 PM 91.2°F32.9°C 63.5°F17.5°C 40% 7.0 mph S11.3 kmh S 20.0 mph32.2 kmh 29.78 in1008.5 mb 0.00 in0.0 mm 0.00 in0.0 mm 0.00 in0.0 mm
05:48 PM 91.2°F32.9°C 63.5°F17.5°C 40% 4.0 mph SSW6.4 kmh SSW 20.0 mph32.2 kmh 29.78 in1008.5 mb 0.00 in0.0 mm 0.00 in0.0 mm 0.00 in0.0 mm
05:50 PM 91.2°F32.9°C 63.5°F17.5°C 40% 5.0 mph S8.0 kmh S 20.0 mph32.2 kmh 29.78 in1008.5 mb 0.00 in0.0 mm 0.00 in0.0 mm 0.00 in0.0 mm
05:52 PM 91.1°F32.8°C 63.4°F17.4°C 40% 10.0 mph SSW16.1 kmh SSW 20.0 mph32.2 kmh 29.78 in1008.5 mb 0.00 in0.0 mm 0.00 in0.0 mm 0.00 in0.0 mm
05:54 PM 91.1°F32.8°C 63.4°F17.4°C 40% 11.0 mph S17.7 kmh S 20.0 mph32.2 kmh 29.78 in1008.5 mb 0.00 in0.0 mm 0.00 in0.0 mm 0.00 in0.0 mm
05:56 PM 91.1°F32.8°C 63.4°F17.4°C 40% 6.0 mph S9.7 kmh S 20.0 mph32.2 kmh 29.78 in1008.5 mb 0.00 in0.0 mm 0.00 in0.0 mm 0.00 in0.0 mm
05:58 PM 91.0°F32.8°C 63.4°F17.4°C 40% 5.0 mph SSE8.0 kmh SSE 20.0 mph32.2 kmh 29.78 in1008.5 mb 0.00 in0.0 mm 0.00 in0.0 mm 0.00 in0.0 mm
06:00 PM 90.9°F32.7°C 63.3°F17.4°C 40% 11.0 mph S17.7 kmh S 20.0 mph32.2 kmh 29.78 in1008.5 mb 0.00 in0.0 mm 0.00 in0.0 mm 0.00 in0.0 mm
06:02 PM 90.8°F32.7°C 63.2°F17.3°C 40% 5.0 mph S8.0 kmh S 11.0 mph17.7 kmh 29.78 in1008.5 mb 0.00 in0.0 mm 0.00 in0.0 mm 0.00 in0.0 mm
06:04 PM 90.8°F32.7°C 63.2°F17.3°C 40% 6.0 mph SSW9.7 kmh SSW 14.0 mph22.5 kmh 29.78 in1008.5 mb 0.00 in0.0 mm 0.00 in0.0 mm 0.00 in0.0 mm
06:06 PM 90.9°F32.7°C 63.3°F17.4°C 40% 11.0 mph S17.7 kmh S 14.0 mph22.5 kmh 29.78 in1008.5 mb 0.00 in0.0 mm 0.00 in0.0 mm 0.00 in0.0 mm
06:08 PM 90.8°F32.7°C 63.9°F17.7°C 41% 11.0 mph S17.7 kmh S 14.0 mph22.5 kmh 29.78 in1008.5 mb 0.00 in0.0 mm 0.00 in0.0 mm 0.00 in0.0 mm
06:10 PM 90.7°F32.6°C 63.8°F17.7°C 41% 8.0 mph SSW12.9 kmh SSW 14.0 mph22.5 kmh 29.78 in1008.5 mb 0.00 in0.0 mm 0.00 in0.0 mm 0.00 in0.0 mm
06:12 PM 90.7°F32.6°C 63.8°F17.7°C 41% 4.0 mph S6.4 kmh S 14.0 mph22.5 kmh 29.78 in1008.5 mb 0.00 in0.0 mm 0.00 in0.0 mm 0.00 in0.0 mm
06:14 PM 90.6°F32.6°C 63.7°F17.6°C 41% 8.0 mph SSE12.9 kmh SSE 14.0 mph22.5 kmh 29.78 in1008.5 mb 0.00 in0.0 mm 0.00 in0.0 mm 0.00 in0.0 mm
06:16 PM 90.6°F32.6°C 63.7°F17.6°C 41% 8.0 mph SSW12.9 kmh SSW 14.0 mph22.5 kmh 29.78 in1008.5 mb 0.00 in0.0 mm 0.00 in0.0 mm 0.00 in0.0 mm
06:18 PM 90.5°F32.5°C 63.6°F17.6°C 41% 4.0 mph SW6.4 kmh SW 14.0 mph22.5 kmh 29.79 in1008.8 mb 0.00 in0.0 mm 0.00 in0.0 mm 0.00 in0.0 mm
06:20 PM 90.5°F32.5°C 63.6°F17.6°C 41% 5.0 mph S8.0 kmh S 14.0 mph22.5 kmh 29.79 in1008.8 mb 0.00 in0.0 mm 0.00 in0.0 mm 0.00 in0.0 mm
06:22 PM 90.4°F32.4°C 63.5°F17.5°C 41% 3.0 mph S4.8 kmh S 14.0 mph22.5 kmh 29.79 in1008.8 mb 0.00 in0.0 mm 0.00 in0.0 mm 0.00 in0.0 mm
06:24 PM 90.3°F32.4°C 63.4°F17.4°C 41% 7.0 mph SSW11.3 kmh SSW 14.0 mph22.5 kmh 29.79 in1008.8 mb 0.00 in0.0 mm 0.00 in0.0 mm 0.00 in0.0 mm
06:26 PM 90.2°F32.3°C 63.3°F17.4°C 41% 3.0 mph S4.8 kmh S 14.0 mph22.5 kmh 29.79 in1008.8 mb 0.00 in0.0 mm 0.00 in0.0 mm 0.00 in0.0 mm
06:28 PM 90.2°F32.3°C 63.3°F17.4°C 41% 3.0 mph SW4.8 kmh SW 14.0 mph22.5 kmh 29.79 in1008.8 mb 0.00 in0.0 mm 0.00 in0.0 mm 0.00 in0.0 mm
06:30 PM 90.1°F32.3°C 63.3°F17.4°C 41% 5.0 mph S8.0 kmh S 14.0 mph22.5 kmh 29.79 in1008.8 mb 0.00 in0.0 mm 0.00 in0.0 mm 0.00 in0.0 mm
06:32 PM 90.1°F32.3°C 63.9°F17.7°C 42% 2.0 mph SE3.2 kmh SE 4.0 mph6.4 kmh 29.79 in1008.8 mb 0.00 in0.0 mm 0.00 in0.0 mm 0.00 in0.0 mm
06:38 PM 89.9°F32.2°C 63.8°F17.7°C 42% 5.0 mph SSE8.0 kmh SSE 7.0 mph11.3 kmh 29.79 in1008.8 mb 0.00 in0.0 mm 0.00 in0.0 mm 0.00 in0.0 mm
06:40 PM 89.8°F32.1°C 63.7°F17.6°C 42% 7.0 mph S11.3 kmh S 9.0 mph14.5 kmh 29.79 in1008.8 mb 0.00 in0.0 mm 0.00 in0.0 mm 0.00 in0.0 mm
06:42 PM 89.8°F32.1°C 63.7°F17.6°C 42% 2.0 mph S3.2 kmh S 9.0 mph14.5 kmh 29.79 in1008.8 mb 0.00 in0.0 mm 0.00 in0.0 mm 0.00 in0.0 mm
06:44 PM 89.7°F32.1°C 63.6°F17.6°C 42% 4.0 mph S6.4 kmh S 11.0 mph17.7 kmh 29.79 in1008.8 mb 0.00 in0.0 mm 0.00 in0.0 mm 0.00 in0.0 mm
06:46 PM 89.7°F32.1°C 62.9°F17.2°C 41% 5.0 mph S8.0 kmh S 11.0 mph17.7 kmh 29.79 in1008.8 mb 0.00 in0.0 mm 0.00 in0.0 mm 0.00 in0.0 mm
06:48 PM 89.7°F32.1°C 63.6°F17.6°C 42% 7.0 mph S11.3 kmh S 11.0 mph17.7 kmh 29.79 in1008.8 mb 0.00 in0.0 mm 0.00 in0.0 mm 0.00 in0.0 mm
06:50 PM 89.7°F32.1°C 62.9°F17.2°C 41% 7.0 mph S11.3 kmh S 11.0 mph17.7 kmh 29.79 in1008.8 mb 0.00 in0.0 mm 0.00 in0.0 mm 0.00 in0.0 mm
06:52 PM 89.6°F32.0°C 62.8°F17.1°C 41% 3.0 mph SE4.8 kmh SE 11.0 mph17.7 kmh 29.79 in1008.8 mb 0.00 in0.0 mm 0.00 in0.0 mm 0.00 in0.0 mm
06:54 PM 89.6°F32.0°C 63.5°F17.5°C 42% 7.0 mph SSE11.3 kmh SSE 11.0 mph17.7 kmh 29.79 in1008.8 mb 0.00 in0.0 mm 0.00 in0.0 mm 0.00 in0.0 mm
06:56 PM 89.5°F31.9°C 63.4°F17.4°C 42% 5.0 mph SSW8.0 kmh SSW 11.0 mph17.7 kmh 29.79 in1008.8 mb 0.00 in0.0 mm 0.00 in0.0 mm 0.00 in0.0 mm
06:58 PM 89.5°F31.9°C 63.4°F17.4°C 42% 5.0 mph S8.0 kmh S 11.0 mph17.7 kmh 29.79 in1008.8 mb 0.00 in0.0 mm 0.00 in0.0 mm 0.00 in0.0 mm
07:00 PM 89.4°F31.9°C 63.3°F17.4°C 42% 1.0 mph S1.6 kmh S 11.0 mph17.7 kmh 29.80 in1009.1 mb 0.00 in0.0 mm 0.00 in0.0 mm 0.00 in0.0 mm
07:02 PM 89.5°F31.9°C 63.4°F17.4°C 42% 3.0 mph S4.8 kmh S 6.0 mph9.7 kmh 29.80 in1009.1 mb 0.00 in0.0 mm 0.00 in0.0 mm 0.00 in0.0 mm
07:04 PM 89.4°F31.9°C 63.3°F17.4°C 42% 5.0 mph SSE8.0 kmh SSE 7.0 mph11.3 kmh 29.80 in1009.1 mb 0.00 in0.0 mm 0.00 in0.0 mm 0.00 in0.0 mm
07:06 PM 89.3°F31.8°C 63.2°F17.3°C 42% 4.0 mph SSE6.4 kmh SSE 7.0 mph11.3 kmh 29.80 in1009.1 mb 0.00 in0.0 mm 0.00 in0.0 mm 0.00 in0.0 mm
07:08 PM 89.2°F31.8°C 63.1°F17.3°C 42% 2.0 mph SSE3.2 kmh SSE 7.0 mph11.3 kmh 29.80 in1009.1 mb 0.00 in0.0 mm 0.00 in0.0 mm 0.00 in0.0 mm
07:10 PM 89.1°F31.7°C 63.7°F17.6°C 43% 1.0 mph SE1.6 kmh SE 7.0 mph11.3 kmh 29.80 in1009.1 mb 0.00 in0.0 mm 0.00 in0.0 mm 0.00 in0.0 mm
07:12 PM 89.0°F31.7°C 63.6°F17.6°C 43% 2.0 mph SE3.2 kmh SE 7.0 mph11.3 kmh 29.80 in1009.1 mb 0.00 in0.0 mm 0.00 in0.0 mm 0.00 in0.0 mm
07:14 PM 88.9°F31.6°C 63.5°F17.5°C 43% 2.0 mph SE3.2 kmh SE 7.0 mph11.3 kmh 29.80 in1009.1 mb 0.00 in0.0 mm 0.00 in0.0 mm 0.00 in0.0 mm
07:16 PM 88.8°F31.6°C 63.4°F17.4°C 43% 2.0 mph SE3.2 kmh SE 7.0 mph11.3 kmh 29.80 in1009.1 mb 0.00 in0.0 mm 0.00 in0.0 mm 0.00 in0.0 mm
07:18 PM 88.7°F31.5°C 64.0°F17.8°C 44% 5.0 mph SE8.0 kmh SE 7.0 mph11.3 kmh 29.80 in1009.1 mb 0.00 in0.0 mm 0.00 in0.0 mm 0.00 in0.0 mm
07:20 PM 88.6°F31.4°C 63.9°F17.7°C 44% 4.0 mph S6.4 kmh S 7.0 mph11.3 kmh 29.80 in1009.1 mb 0.00 in0.0 mm 0.00 in0.0 mm 0.00 in0.0 mm
07:22 PM 88.5°F31.4°C 63.8°F17.7°C 44% 4.0 mph SSE6.4 kmh SSE 7.0 mph11.3 kmh 29.80 in1009.1 mb 0.00 in0.0 mm 0.00 in0.0 mm 0.00 in0.0 mm
07:40 PM 88.2°F31.2°C 64.8°F18.2°C 46% 2.0 mph SE3.2 kmh SE 6.0 mph9.7 kmh 29.81 in1009.5 mb 0.00 in0.0 mm 0.00 in0.0 mm 0.00 in0.0 mm
07:42 PM 88.1°F31.2°C 64.7°F18.2°C 46% 4.0 mph SE6.4 kmh SE 8.0 mph12.9 kmh 29.81 in1009.5 mb 0.00 in0.0 mm 0.00 in0.0 mm 0.00 in0.0 mm
07:44 PM 88.1°F31.2°C 64.7°F18.2°C 46% 3.0 mph S4.8 kmh S 8.0 mph12.9 kmh 29.81 in1009.5 mb 0.00 in0.0 mm 0.00 in0.0 mm 0.00 in0.0 mm
07:46 PM 88.0°F31.1°C 65.3°F18.5°C 47% 4.0 mph E6.4 kmh E 8.0 mph12.9 kmh 29.81 in1009.5 mb 0.00 in0.0 mm 0.00 in0.0 mm 0.00 in0.0 mm
07:48 PM 87.9°F31.1°C 65.2°F18.4°C 47% 3.0 mph SE4.8 kmh SE 8.0 mph12.9 kmh 29.81 in1009.5 mb 0.00 in0.0 mm 0.00 in0.0 mm 0.00 in0.0 mm
07:50 PM 87.8°F31.0°C 65.1°F18.4°C 47% 6.0 mph SSE9.7 kmh SSE 8.0 mph12.9 kmh 29.81 in1009.5 mb 0.00 in0.0 mm 0.00 in0.0 mm 0.00 in0.0 mm
07:52 PM 87.9°F31.1°C 65.2°F18.4°C 47% 2.0 mph SSE3.2 kmh SSE 8.0 mph12.9 kmh 29.81 in1009.5 mb 0.00 in0.0 mm 0.00 in0.0 mm 0.00 in0.0 mm
07:54 PM 87.9°F31.1°C 65.2°F18.4°C 47% 4.0 mph S6.4 kmh S 8.0 mph12.9 kmh 29.81 in1009.5 mb 0.00 in0.0 mm 0.00 in0.0 mm 0.00 in0.0 mm
07:56 PM 87.8°F31.0°C 65.1°F18.4°C 47% 3.0 mph SE4.8 kmh SE 8.0 mph12.9 kmh 29.81 in1009.5 mb 0.00 in0.0 mm 0.00 in0.0 mm 0.00 in0.0 mm
07:58 PM 87.8°F31.0°C 65.1°F18.4°C 47% 4.0 mph S6.4 kmh S 8.0 mph12.9 kmh 29.81 in1009.5 mb 0.00 in0.0 mm 0.00 in0.0 mm 0.00 in0.0 mm
08:00 PM 87.8°F31.0°C 65.7°F18.7°C 48% 2.0 mph SSE3.2 kmh SSE 8.0 mph12.9 kmh 29.81 in1009.5 mb 0.00 in0.0 mm 0.00 in0.0 mm 0.00 in0.0 mm
08:02 PM 87.7°F30.9°C 65.6°F18.7°C 48% 2.0 mph S3.2 kmh S 6.0 mph9.7 kmh 29.81 in1009.5 mb 0.00 in0.0 mm 0.00 in0.0 mm 0.00 in0.0 mm
08:04 PM 87.7°F30.9°C 65.6°F18.7°C 48% 4.0 mph SSE6.4 kmh SSE 7.0 mph11.3 kmh 29.81 in1009.5 mb 0.00 in0.0 mm 0.00 in0.0 mm 0.00 in0.0 mm
08:06 PM 87.6°F30.9°C 65.5°F18.6°C 48% 3.0 mph S4.8 kmh S 7.0 mph11.3 kmh 29.81 in1009.5 mb 0.00 in0.0 mm 0.00 in0.0 mm 0.00 in0.0 mm
08:08 PM 87.5°F30.8°C 65.4°F18.6°C 48% 3.0 mph SSE4.8 kmh SSE 10.0 mph16.1 kmh 29.81 in1009.5 mb 0.00 in0.0 mm 0.00 in0.0 mm 0.00 in0.0 mm
08:10 PM 87.4°F30.8°C 65.3°F18.5°C 48% 2.0 mph SSE3.2 kmh SSE 10.0 mph16.1 kmh 29.81 in1009.5 mb 0.00 in0.0 mm 0.00 in0.0 mm 0.00 in0.0 mm
08:12 PM 87.4°F30.8°C 65.3°F18.5°C 48% 5.0 mph SE8.0 kmh SE 10.0 mph16.1 kmh 29.81 in1009.5 mb 0.00 in0.0 mm 0.00 in0.0 mm 0.00 in0.0 mm
08:14 PM 87.4°F30.8°C 65.9°F18.8°C 49% 2.0 mph SE3.2 kmh SE 10.0 mph16.1 kmh 29.81 in1009.5 mb 0.00 in0.0 mm 0.00 in0.0 mm 0.00 in0.0 mm
08:16 PM 87.4°F30.8°C 65.9°F18.8°C 49% 2.0 mph SE3.2 kmh SE 10.0 mph16.1 kmh 29.82 in1009.8 mb 0.00 in0.0 mm 0.00 in0.0 mm 0.00 in0.0 mm
08:18 PM 87.4°F30.8°C 65.9°F18.8°C 49% 4.0 mph SSE6.4 kmh SSE 10.0 mph16.1 kmh 29.81 in1009.5 mb 0.00 in0.0 mm 0.00 in0.0 mm 0.00 in0.0 mm
08:20 PM 87.4°F30.8°C 65.9°F18.8°C 49% 2.0 mph SE3.2 kmh SE 10.0 mph16.1 kmh 29.82 in1009.8 mb 0.00 in0.0 mm 0.00 in0.0 mm 0.00 in0.0 mm
08:22 PM 87.4°F30.8°C 65.9°F18.8°C 49% 1.0 mph SE1.6 kmh SE 10.0 mph16.1 kmh 29.82 in1009.8 mb 0.00 in0.0 mm 0.00 in0.0 mm 0.00 in0.0 mm
08:24 PM 87.3°F30.7°C 65.8°F18.8°C 49% 1.0 mph E1.6 kmh E 10.0 mph16.1 kmh 29.82 in1009.8 mb 0.00 in0.0 mm 0.00 in0.0 mm 0.00 in0.0 mm
08:26 PM 87.3°F30.7°C 65.8°F18.8°C 49% 4.0 mph SSE6.4 kmh SSE 10.0 mph16.1 kmh 29.82 in1009.8 mb 0.00 in0.0 mm 0.00 in0.0 mm 0.00 in0.0 mm
08:28 PM 87.2°F30.7°C 65.7°F18.7°C 49% 5.0 mph ESE8.0 kmh ESE 10.0 mph16.1 kmh 29.82 in1009.8 mb 0.00 in0.0 mm 0.00 in0.0 mm 0.00 in0.0 mm
08:30 PM 87.1°F30.6°C 65.6°F18.7°C 49% 5.0 mph SE8.0 kmh SE 10.0 mph16.1 kmh 29.82 in1009.8 mb 0.00 in0.0 mm 0.00 in0.0 mm 0.00 in0.0 mm
08:32 PM 87.1°F30.6°C 65.6°F18.7°C 49% 2.0 mph SSE3.2 kmh SSE 4.0 mph6.4 kmh 29.82 in1009.8 mb 0.00 in0.0 mm 0.00 in0.0 mm 0.00 in0.0 mm
08:34 PM 87.0°F30.6°C 65.6°F18.7°C 49% 4.0 mph SSE6.4 kmh SSE 6.0 mph9.7 kmh 29.82 in1009.8 mb 0.00 in0.0 mm 0.00 in0.0 mm 0.00 in0.0 mm
08:36 PM 87.0°F30.6°C 65.6°F18.7°C 49% 3.0 mph S4.8 kmh S 6.0 mph9.7 kmh 29.82 in1009.8 mb 0.00 in0.0 mm 0.00 in0.0 mm 0.00 in0.0 mm
08:38 PM 86.9°F30.5°C 66.0°F18.9°C 50% 3.0 mph SE4.8 kmh SE 6.0 mph9.7 kmh 29.82 in1009.8 mb 0.00 in0.0 mm 0.00 in0.0 mm 0.00 in0.0 mm
08:40 PM 86.9°F30.5°C 66.0°F18.9°C 50% 4.0 mph SE6.4 kmh SE 8.0 mph12.9 kmh 29.82 in1009.8 mb 0.00 in0.0 mm 0.00 in0.0 mm 0.00 in0.0 mm
08:42 PM 86.8°F30.4°C 66.0°F18.9°C 50% 2.0 mph SSE3.2 kmh SSE 8.0 mph12.9 kmh 29.82 in1009.8 mb 0.00 in0.0 mm 0.00 in0.0 mm 0.00 in0.0 mm
08:44 PM 86.8°F30.4°C 66.0°F18.9°C 50% 6.0 mph SSE9.7 kmh SSE 8.0 mph12.9 kmh 29.82 in1009.8 mb 0.00 in0.0 mm 0.00 in0.0 mm 0.00 in0.0 mm
08:46 PM 86.7°F30.4°C 65.9°F18.8°C 50% 3.0 mph S4.8 kmh S 8.0 mph12.9 kmh 29.82 in1009.8 mb 0.00 in0.0 mm 0.00 in0.0 mm 0.00 in0.0 mm
08:48 PM 86.7°F30.4°C 65.9°F18.8°C 50% 7.0 mph SE11.3 kmh SE 8.0 mph12.9 kmh 29.82 in1009.8 mb 0.00 in0.0 mm 0.00 in0.0 mm 0.00 in0.0 mm
08:50 PM 86.6°F30.3°C 65.8°F18.8°C 50% 3.0 mph S4.8 kmh S 8.0 mph12.9 kmh 29.82 in1009.8 mb 0.00 in0.0 mm 0.00 in0.0 mm 0.00 in0.0 mm
08:52 PM 86.6°F30.3°C 65.8°F18.8°C 50% 4.0 mph SE6.4 kmh SE 8.0 mph12.9 kmh 29.82 in1009.8 mb 0.00 in0.0 mm 0.00 in0.0 mm 0.00 in0.0 mm
08:54 PM 86.5°F30.3°C 65.7°F18.7°C 50% 4.0 mph SE6.4 kmh SE 8.0 mph12.9 kmh 29.82 in1009.8 mb 0.00 in0.0 mm 0.00 in0.0 mm 0.00 in0.0 mm
08:56 PM 86.5°F30.3°C 65.7°F18.7°C 50% 4.0 mph ESE6.4 kmh ESE 10.0 mph16.1 kmh 29.82 in1009.8 mb 0.00 in0.0 mm 0.00 in0.0 mm 0.00 in0.0 mm
08:58 PM 86.4°F30.2°C 66.2°F19.0°C 51% 1.0 mph SSE1.6 kmh SSE 10.0 mph16.1 kmh 29.82 in1009.8 mb 0.00 in0.0 mm 0.00 in0.0 mm 0.00 in0.0 mm
09:00 PM 86.3°F30.2°C 66.1°F18.9°C 51% 4.0 mph SSE6.4 kmh SSE 10.0 mph16.1 kmh 29.82 in1009.8 mb 0.00 in0.0 mm 0.00 in0.0 mm 0.00 in0.0 mm
09:02 PM 86.3°F30.2°C 66.1°F18.9°C 51% 8.0 mph S12.9 kmh S 8.0 mph12.9 kmh 29.82 in1009.8 mb 0.00 in0.0 mm 0.00 in0.0 mm 0.00 in0.0 mm
09:04 PM 86.2°F30.1°C 66.0°F18.9°C 51% 4.0 mph SE6.4 kmh SE 9.0 mph14.5 kmh 29.82 in1009.8 mb 0.00 in0.0 mm 0.00 in0.0 mm 0.00 in0.0 mm
09:06 PM 86.1°F30.1°C 65.9°F18.8°C 51% 1.0 mph SSE1.6 kmh SSE 9.0 mph14.5 kmh 29.82 in1009.8 mb 0.00 in0.0 mm 0.00 in0.0 mm 0.00 in0.0 mm
09:08 PM 86.2°F30.1°C 66.0°F18.9°C 51% 5.0 mph SSE8.0 kmh SSE 9.0 mph14.5 kmh 29.82 in1009.8 mb 0.00 in0.0 mm 0.00 in0.0 mm 0.00 in0.0 mm
09:10 PM 86.1°F30.1°C 65.9°F18.8°C 51% 3.0 mph SSE4.8 kmh SSE 9.0 mph14.5 kmh 29.82 in1009.8 mb 0.00 in0.0 mm 0.00 in0.0 mm 0.00 in0.0 mm
09:12 PM 86.1°F30.1°C 65.9°F18.8°C 51% 2.0 mph SSE3.2 kmh SSE 9.0 mph14.5 kmh 29.82 in1009.8 mb 0.00 in0.0 mm 0.00 in0.0 mm 0.00 in0.0 mm
09:14 PM 86.0°F30.0°C 65.8°F18.8°C 51% 8.0 mph SE12.9 kmh SE 9.0 mph14.5 kmh 29.82 in1009.8 mb 0.00 in0.0 mm 0.00 in0.0 mm 0.00 in0.0 mm
09:16 PM 86.0°F30.0°C 65.8°F18.8°C 51% 9.0 mph SE14.5 kmh SE 9.0 mph14.5 kmh 29.82 in1009.8 mb 0.00 in0.0 mm 0.00 in0.0 mm 0.00 in0.0 mm
09:18 PM 86.0°F30.0°C 65.8°F18.8°C 51% 5.0 mph SE8.0 kmh SE 10.0 mph16.1 kmh 29.82 in1009.8 mb 0.00 in0.0 mm 0.00 in0.0 mm 0.00 in0.0 mm
09:20 PM 85.9°F29.9°C 65.7°F18.7°C 51% 5.0 mph SE8.0 kmh SE 11.0 mph17.7 kmh 29.82 in1009.8 mb 0.00 in0.0 mm 0.00 in0.0 mm 0.00 in0.0 mm
09:22 PM 85.9°F29.9°C 65.7°F18.7°C 51% 1.0 mph ESE1.6 kmh ESE 11.0 mph17.7 kmh 29.82 in1009.8 mb 0.00 in0.0 mm 0.00 in0.0 mm 0.00 in0.0 mm
09:24 PM 85.8°F29.9°C 65.6°F18.7°C 51% 3.0 mph SE4.8 kmh SE 11.0 mph17.7 kmh 29.82 in1009.8 mb 0.00 in0.0 mm 0.00 in0.0 mm 0.00 in0.0 mm
09:26 PM 85.7°F29.8°C 66.1°F18.9°C 52% 3.0 mph SE4.8 kmh SE 11.0 mph17.7 kmh 29.82 in1009.8 mb 0.00 in0.0 mm 0.00 in0.0 mm 0.00 in0.0 mm
09:28 PM 85.7°F29.8°C 66.1°F18.9°C 52% 3.0 mph SE4.8 kmh SE 12.0 mph19.3 kmh 29.82 in1009.8 mb 0.00 in0.0 mm 0.00 in0.0 mm 0.00 in0.0 mm
09:30 PM 85.7°F29.8°C 66.1°F18.9°C 52% 3.0 mph SE4.8 kmh SE 12.0 mph19.3 kmh 29.82 in1009.8 mb 0.00 in0.0 mm 0.00 in0.0 mm 0.00 in0.0 mm
09:32 PM 85.6°F29.8°C 66.0°F18.9°C 52% 4.0 mph SE6.4 kmh SE 6.0 mph9.7 kmh 29.82 in1009.8 mb 0.00 in0.0 mm 0.00 in0.0 mm 0.00 in0.0 mm
09:34 PM 85.6°F29.8°C 66.0°F18.9°C 52% 1.0 mph S1.6 kmh S 9.0 mph14.5 kmh 29.82 in1009.8 mb 0.00 in0.0 mm 0.00 in0.0 mm 0.00 in0.0 mm
09:36 PM 85.5°F29.7°C 65.9°F18.8°C 52% 4.0 mph ESE6.4 kmh ESE 9.0 mph14.5 kmh 29.82 in1009.8 mb 0.00 in0.0 mm 0.00 in0.0 mm 0.00 in0.0 mm
09:38 PM 85.5°F29.7°C 65.9°F18.8°C 52% 2.0 mph SSE3.2 kmh SSE 10.0 mph16.1 kmh 29.83 in1010.2 mb 0.00 in0.0 mm 0.00 in0.0 mm 0.00 in0.0 mm
09:40 PM 85.5°F29.7°C 65.9°F18.8°C 52% 3.0 mph SE4.8 kmh SE 10.0 mph16.1 kmh 29.83 in1010.2 mb 0.00 in0.0 mm 0.00 in0.0 mm 0.00 in0.0 mm
09:42 PM 85.4°F29.7°C 65.8°F18.8°C 52% 7.0 mph ESE11.3 kmh ESE 10.0 mph16.1 kmh 29.83 in1010.2 mb 0.00 in0.0 mm 0.00 in0.0 mm 0.00 in0.0 mm
09:44 PM 85.3°F29.6°C 65.7°F18.7°C 52% 6.0 mph SSE9.7 kmh SSE 10.0 mph16.1 kmh 29.83 in1010.2 mb 0.00 in0.0 mm 0.00 in0.0 mm 0.00 in0.0 mm
09:46 PM 85.2°F29.6°C 65.6°F18.7°C 52% 4.0 mph S6.4 kmh S 10.0 mph16.1 kmh 29.83 in1010.2 mb 0.00 in0.0 mm 0.00 in0.0 mm 0.00 in0.0 mm
09:48 PM 85.1°F29.5°C 65.5°F18.6°C 52% 4.0 mph SE6.4 kmh SE 10.0 mph16.1 kmh 29.83 in1010.2 mb 0.00 in0.0 mm 0.00 in0.0 mm 0.00 in0.0 mm
09:50 PM 85.1°F29.5°C 65.5°F18.6°C 52% 5.0 mph SE8.0 kmh SE 10.0 mph16.1 kmh 29.83 in1010.2 mb 0.00 in0.0 mm 0.00 in0.0 mm 0.00 in0.0 mm
09:52 PM 85.0°F29.4°C 66.0°F18.9°C 53% 5.0 mph SE8.0 kmh SE 13.0 mph20.9 kmh 29.83 in1010.2 mb 0.00 in0.0 mm 0.00 in0.0 mm 0.00 in0.0 mm
09:54 PM 85.0°F29.4°C 66.0°F18.9°C 53% 3.0 mph SE4.8 kmh SE 13.0 mph20.9 kmh 29.82 in1009.8 mb 0.00 in0.0 mm 0.00 in0.0 mm 0.00 in0.0 mm
09:56 PM 84.9°F29.4°C 65.3°F18.5°C 52% 6.0 mph SSE9.7 kmh SSE 13.0 mph20.9 kmh 29.82 in1009.8 mb 0.00 in0.0 mm 0.00 in0.0 mm 0.00 in0.0 mm
09:58 PM 84.9°F29.4°C 65.3°F18.5°C 52% 4.0 mph SE6.4 kmh SE 13.0 mph20.9 kmh 29.83 in1010.2 mb 0.00 in0.0 mm 0.00 in0.0 mm 0.00 in0.0 mm
10:00 PM 84.9°F29.4°C 65.3°F18.5°C 52% 4.0 mph SSE6.4 kmh SSE 13.0 mph20.9 kmh 29.83 in1010.2 mb 0.00 in0.0 mm 0.00 in0.0 mm 0.00 in0.0 mm
10:02 PM 84.8°F29.3°C 65.8°F18.8°C 53% 5.0 mph SE8.0 kmh SE 5.0 mph8.0 kmh 29.83 in1010.2 mb 0.00 in0.0 mm 0.00 in0.0 mm 0.00 in0.0 mm
10:04 PM 84.7°F29.3°C 65.7°F18.7°C 53% 6.0 mph S9.7 kmh S 8.0 mph12.9 kmh 29.83 in1010.2 mb 0.00 in0.0 mm 0.00 in0.0 mm 0.00 in0.0 mm
10:06 PM 84.7°F29.3°C 65.7°F18.7°C 53% 3.0 mph SSE4.8 kmh SSE 8.0 mph12.9 kmh 29.83 in1010.2 mb 0.00 in0.0 mm 0.00 in0.0 mm 0.00 in0.0 mm
10:08 PM 84.6°F29.2°C 65.6°F18.7°C 53% 5.0 mph SE8.0 kmh SE 10.0 mph16.1 kmh 29.83 in1010.2 mb 0.00 in0.0 mm 0.00 in0.0 mm 0.00 in0.0 mm
10:10 PM 84.5°F29.2°C 65.5°F18.6°C 53% 3.0 mph SSE4.8 kmh SSE 12.0 mph19.3 kmh 29.83 in1010.2 mb 0.00 in0.0 mm 0.00 in0.0 mm 0.00 in0.0 mm
10:12 PM 84.5°F29.2°C 65.5°F18.6°C 53% 4.0 mph ESE6.4 kmh ESE 12.0 mph19.3 kmh 29.83 in1010.2 mb 0.00 in0.0 mm 0.00 in0.0 mm 0.00 in0.0 mm
10:14 PM 84.4°F29.1°C 65.4°F18.6°C 53% 6.0 mph SSE9.7 kmh SSE 12.0 mph19.3 kmh 29.83 in1010.2 mb 0.00 in0.0 mm 0.00 in0.0 mm 0.00 in0.0 mm
10:16 PM 84.4°F29.1°C 66.0°F18.9°C 54% 5.0 mph SSW8.0 kmh SSW 12.0 mph19.3 kmh 29.83 in1010.2 mb 0.00 in0.0 mm 0.00 in0.0 mm 0.00 in0.0 mm
10:18 PM 84.4°F29.1°C 66.0°F18.9°C 54% 5.0 mph SE8.0 kmh SE 12.0 mph19.3 kmh 29.83 in1010.2 mb 0.00 in0.0 mm 0.00 in0.0 mm 0.00 in0.0 mm
10:20 PM 84.3°F29.1°C 65.9°F18.8°C 54% 5.0 mph S8.0 kmh S 12.0 mph19.3 kmh 29.83 in1010.2 mb 0.00 in0.0 mm 0.00 in0.0 mm 0.00 in0.0 mm
10:22 PM 84.2°F29.0°C 65.8°F18.8°C 54% 5.0 mph SSE8.0 kmh SSE 12.0 mph19.3 kmh 29.83 in1010.2 mb 0.00 in0.0 mm 0.00 in0.0 mm 0.00 in0.0 mm
10:24 PM 84.2°F29.0°C 65.8°F18.8°C 54% 12.0 mph S19.3 kmh S 12.0 mph19.3 kmh 29.83 in1010.2 mb 0.00 in0.0 mm 0.00 in0.0 mm 0.00 in0.0 mm
10:26 PM 84.1°F28.9°C 65.7°F18.7°C 54% 9.0 mph SE14.5 kmh SE 12.0 mph19.3 kmh 29.83 in1010.2 mb 0.00 in0.0 mm 0.00 in0.0 mm 0.00 in0.0 mm
10:28 PM 84.1°F28.9°C 66.2°F19.0°C 55% 5.0 mph SSE8.0 kmh SSE 12.0 mph19.3 kmh 29.83 in1010.2 mb 0.00 in0.0 mm 0.00 in0.0 mm 0.00 in0.0 mm
10:30 PM 84.1°F28.9°C 66.2°F19.0°C 55% 7.0 mph SSE11.3 kmh SSE 12.0 mph19.3 kmh 29.83 in1010.2 mb 0.00 in0.0 mm 0.00 in0.0 mm 0.00 in0.0 mm
10:32 PM 84.0°F28.9°C 66.1°F18.9°C 55% 3.0 mph SE4.8 kmh SE 7.0 mph11.3 kmh 29.83 in1010.2 mb 0.00 in0.0 mm 0.00 in0.0 mm 0.00 in0.0 mm
10:34 PM 84.0°F28.9°C 66.1°F18.9°C 55% 6.0 mph SE9.7 kmh SE 9.0 mph14.5 kmh 29.83 in1010.2 mb 0.00 in0.0 mm 0.00 in0.0 mm 0.00 in0.0 mm
10:36 PM 83.9°F28.8°C 66.0°F18.9°C 55% 10.0 mph S16.1 kmh S 12.0 mph19.3 kmh 29.84 in1010.5 mb 0.00 in0.0 mm 0.00 in0.0 mm 0.00 in0.0 mm
10:38 PM 83.9°F28.8°C 66.0°F18.9°C 55% 5.0 mph SE8.0 kmh SE 13.0 mph20.9 kmh 29.83 in1010.2 mb 0.00 in0.0 mm 0.00 in0.0 mm 0.00 in0.0 mm
10:40 PM 83.9°F28.8°C 66.0°F18.9°C 55% 9.0 mph SE14.5 kmh SE 13.0 mph20.9 kmh 29.83 in1010.2 mb 0.00 in0.0 mm 0.00 in0.0 mm 0.00 in0.0 mm
10:42 PM 83.8°F28.8°C 65.9°F18.8°C 55% 10.0 mph S16.1 kmh S 13.0 mph20.9 kmh 29.83 in1010.2 mb 0.00 in0.0 mm 0.00 in0.0 mm 0.00 in0.0 mm
10:44 PM 83.8°F28.8°C 66.5°F19.2°C 56% 4.0 mph SE6.4 kmh SE 13.0 mph20.9 kmh 29.83 in1010.2 mb 0.00 in0.0 mm 0.00 in0.0 mm 0.00 in0.0 mm
10:46 PM 83.7°F28.7°C 66.4°F19.1°C 56% 7.0 mph SW11.3 kmh SW 13.0 mph20.9 kmh 29.83 in1010.2 mb 0.00 in0.0 mm 0.00 in0.0 mm 0.00 in0.0 mm
10:48 PM 83.7°F28.7°C 66.4°F19.1°C 56% 7.0 mph S11.3 kmh S 13.0 mph20.9 kmh 29.83 in1010.2 mb 0.00 in0.0 mm 0.00 in0.0 mm 0.00 in0.0 mm
10:50 PM 83.6°F28.7°C 66.8°F19.3°C 57% 6.0 mph S9.7 kmh S 16.0 mph25.7 kmh 29.83 in1010.2 mb 0.00 in0.0 mm 0.00 in0.0 mm 0.00 in0.0 mm
10:52 PM 83.6°F28.7°C 66.8°F19.3°C 57% 6.0 mph S9.7 kmh S 16.0 mph25.7 kmh 29.83 in1010.2 mb 0.00 in0.0 mm 0.00 in0.0 mm 0.00 in0.0 mm
10:54 PM 83.6°F28.7°C 66.8°F19.3°C 57% 13.0 mph S20.9 kmh S 16.0 mph25.7 kmh 29.83 in1010.2 mb 0.00 in0.0 mm 0.00 in0.0 mm 0.00 in0.0 mm
10:56 PM 83.6°F28.7°C 66.8°F19.3°C 57% 4.0 mph SSW6.4 kmh SSW 16.0 mph25.7 kmh 29.83 in1010.2 mb 0.00 in0.0 mm 0.00 in0.0 mm 0.00 in0.0 mm
10:58 PM 83.5°F28.6°C 66.7°F19.3°C 57% 6.0 mph SE9.7 kmh SE 16.0 mph25.7 kmh 29.83 in1010.2 mb 0.00 in0.0 mm 0.00 in0.0 mm 0.00 in0.0 mm
11:00 PM 83.5°F28.6°C 67.2°F19.6°C 58% 9.0 mph SSE14.5 kmh SSE 18.0 mph29.0 kmh 29.84 in1010.5 mb 0.00 in0.0 mm 0.00 in0.0 mm 0.00 in0.0 mm
11:02 PM 83.6°F28.7°C 67.3°F19.6°C 58% 6.0 mph S9.7 kmh S 9.0 mph14.5 kmh 29.84 in1010.5 mb 0.00 in0.0 mm 0.00 in0.0 mm 0.00 in0.0 mm
11:04 PM 83.4°F28.6°C 67.1°F19.5°C 58% 11.0 mph S17.7 kmh S 11.0 mph17.7 kmh 29.84 in1010.5 mb 0.00 in0.0 mm 0.00 in0.0 mm 0.00 in0.0 mm
11:06 PM 83.4°F28.6°C 67.1°F19.5°C 58% 7.0 mph SE11.3 kmh SE 16.0 mph25.7 kmh 29.84 in1010.5 mb 0.00 in0.0 mm 0.00 in0.0 mm 0.00 in0.0 mm
11:08 PM 83.3°F28.5°C 67.0°F19.4°C 58% 5.0 mph SSE8.0 kmh SSE 16.0 mph25.7 kmh 29.84 in1010.5 mb 0.00 in0.0 mm 0.00 in0.0 mm 0.00 in0.0 mm
11:10 PM 83.3°F28.5°C 67.5°F19.7°C 59% 8.0 mph S12.9 kmh S 16.0 mph25.7 kmh 29.83 in1010.2 mb 0.00 in0.0 mm 0.00 in0.0 mm 0.00 in0.0 mm
11:12 PM 83.2°F28.4°C 67.4°F19.7°C 59% 9.0 mph SE14.5 kmh SE 16.0 mph25.7 kmh 29.84 in1010.5 mb 0.00 in0.0 mm 0.00 in0.0 mm 0.00 in0.0 mm
11:14 PM 83.1°F28.4°C 67.3°F19.6°C 59% 4.0 mph S6.4 kmh S 16.0 mph25.7 kmh 29.83 in1010.2 mb 0.00 in0.0 mm 0.00 in0.0 mm 0.00 in0.0 mm
11:16 PM 83.1°F28.4°C 67.3°F19.6°C 59% 4.0 mph SSE6.4 kmh SSE 16.0 mph25.7 kmh 29.83 in1010.2 mb 0.00 in0.0 mm 0.00 in0.0 mm 0.00 in0.0 mm
11:18 PM 83.0°F28.3°C 67.7°F19.8°C 60% 7.0 mph S11.3 kmh S 16.0 mph25.7 kmh 29.83 in1010.2 mb 0.00 in0.0 mm 0.00 in0.0 mm 0.00 in0.0 mm
11:20 PM 83.0°F28.3°C 67.7°F19.8°C 60% 5.0 mph SSE8.0 kmh SSE 16.0 mph25.7 kmh 29.83 in1010.2 mb 0.00 in0.0 mm 0.00 in0.0 mm 0.00 in0.0 mm
11:22 PM 83.0°F28.3°C 67.7°F19.8°C 60% 3.0 mph SSE4.8 kmh SSE 16.0 mph25.7 kmh 29.83 in1010.2 mb 0.00 in0.0 mm 0.00 in0.0 mm 0.00 in0.0 mm
11:24 PM 83.0°F28.3°C 67.7°F19.8°C 60% 5.0 mph S8.0 kmh S 16.0 mph25.7 kmh 29.83 in1010.2 mb 0.00 in0.0 mm 0.00 in0.0 mm 0.00 in0.0 mm
11:26 PM 82.8°F28.2°C 67.5°F19.7°C 60% 6.0 mph S9.7 kmh S 16.0 mph25.7 kmh 29.84 in1010.5 mb 0.00 in0.0 mm 0.00 in0.0 mm 0.00 in0.0 mm
11:28 PM 82.8°F28.2°C 67.5°F19.7°C 60% 5.0 mph SE8.0 kmh SE 17.0 mph27.4 kmh 29.83 in1010.2 mb 0.00 in0.0 mm 0.00 in0.0 mm 0.00 in0.0 mm
11:30 PM 82.8°F28.2°C 68.0°F20.0°C 61% 2.0 mph S3.2 kmh S 17.0 mph27.4 kmh 29.83 in1010.2 mb 0.00 in0.0 mm 0.00 in0.0 mm 0.00 in0.0 mm
11:32 PM 82.7°F28.2°C 67.9°F19.9°C 61% 13.0 mph SSW20.9 kmh SSW 15.0 mph24.1 kmh 29.84 in1010.5 mb 0.00 in0.0 mm 0.00 in0.0 mm 0.00 in0.0 mm
11:34 PM 82.6°F28.1°C 67.8°F19.9°C 61% 5.0 mph S8.0 kmh S 15.0 mph24.1 kmh 29.84 in1010.5 mb 0.00 in0.0 mm 0.00 in0.0 mm 0.00 in0.0 mm
11:36 PM 82.6°F28.1°C 67.8°F19.9°C 61% 7.0 mph SE11.3 kmh SE 18.0 mph29.0 kmh 29.84 in1010.5 mb 0.00 in0.0 mm 0.00 in0.0 mm 0.00 in0.0 mm
11:38 PM 82.6°F28.1°C 67.8°F19.9°C 61% 7.0 mph S11.3 kmh S 18.0 mph29.0 kmh 29.84 in1010.5 mb 0.00 in0.0 mm 0.00 in0.0 mm 0.00 in0.0 mm
11:40 PM 82.6°F28.1°C 67.8°F19.9°C 61% 5.0 mph SW8.0 kmh SW 18.0 mph29.0 kmh 29.84 in1010.5 mb 0.00 in0.0 mm 0.00 in0.0 mm 0.00 in0.0 mm
11:42 PM 82.5°F28.1°C 67.7°F19.8°C 61% 4.0 mph SSW6.4 kmh SSW 18.0 mph29.0 kmh 29.84 in1010.5 mb 0.00 in0.0 mm 0.00 in0.0 mm 0.00 in0.0 mm
11:44 PM 82.5°F28.1°C 67.7°F19.8°C 61% 4.0 mph S6.4 kmh S 18.0 mph29.0 kmh 29.84 in1010.5 mb 0.00 in0.0 mm 0.00 in0.0 mm 0.00 in0.0 mm
11:46 PM 82.4°F28.0°C 68.1°F20.1°C 62% 6.0 mph S9.7 kmh S 18.0 mph29.0 kmh 29.84 in1010.5 mb 0.00 in0.0 mm 0.00 in0.0 mm 0.00 in0.0 mm
11:48 PM 82.3°F27.9°C 68.0°F20.0°C 62% 9.0 mph S14.5 kmh S 18.0 mph29.0 kmh 29.84 in1010.5 mb 0.00 in0.0 mm 0.00 in0.0 mm 0.00 in0.0 mm
11:50 PM 82.3°F27.9°C 68.0°F20.0°C 62% 5.0 mph S8.0 kmh S 18.0 mph29.0 kmh 29.84 in1010.5 mb 0.00 in0.0 mm 0.00 in0.0 mm 0.00 in0.0 mm
11:52 PM 82.3°F27.9°C 68.0°F20.0°C 62% 8.0 mph S12.9 kmh S 18.0 mph29.0 kmh 29.84 in1010.5 mb 0.00 in0.0 mm 0.00 in0.0 mm 0.00 in0.0 mm
11:54 PM 82.2°F27.9°C 67.9°F19.9°C 62% 6.0 mph S9.7 kmh S 18.0 mph29.0 kmh 29.84 in1010.5 mb 0.00 in0.0 mm 0.00 in0.0 mm 0.00 in0.0 mm
11:56 PM 82.2°F27.9°C 67.9°F19.9°C 62% 6.0 mph S9.7 kmh S 18.0 mph29.0 kmh 29.84 in1010.5 mb 0.00 in0.0 mm 0.00 in0.0 mm 0.00 in0.0 mm
11:58 PM 82.1°F27.8°C 67.8°F19.9°C 62% 5.0 mph SSE8.0 kmh SSE 18.0 mph29.0 kmh 29.84 in1010.5 mb 0.00 in0.0 mm 0.00 in0.0 mm 0.00 in0.0 mm